Date StartTime U_cm/s V_cm/s W_cm/s Ustd_cm/s Vstd_cm/s Wstd_cm/s Uvar_(cm/s)^2 Vvar_(cm/s)^2 Wvar_(cm/s)^2 KE_(m/s)^2 TurbulentKE_(m/s)^2 HorizWindSpeed_cm/s FrictionSpeec_cm/s DragCoef SpeedOfSound_m/s SonicTemperature_C Pressure_mb 
02/24/2014  13:20:00       32.486       58.608       12.741       55.972       54.466       42.820     3132.816     2966.549     1833.584        0.629        0.397       67.009       32.331        0.233      341.820       16.798      859.718
02/24/2014  13:21:00       79.425        0.963       22.892       53.228       96.291       46.646     2833.224     9272.007     2175.867        1.055        0.714       79.431       47.271        0.354      342.022       17.141      859.690
02/24/2014  13:22:00      133.198       44.261       57.434       95.915       77.670       42.577     9199.630     6032.649     1812.829        2.001        0.852      140.359       43.529        0.096      342.282       17.580      859.680
02/24/2014  13:23:00       36.724       61.129       82.018       91.266       68.916       57.084     8329.548     4749.407     3258.607        1.407        0.817       71.312       51.480        0.521      342.352       17.701      859.662
02/24/2014  13:24:00       12.057       18.046       36.309       72.706       80.374       50.814     5286.114     6460.005     2582.031        0.805        0.716       21.703       37.642        3.008      342.247       17.524      859.649
02/24/2014  13:25:00       63.364      -82.091       10.284       54.618       80.693       41.191     2983.089     6511.416     1696.662        1.102        0.560      103.702       44.887        0.187      342.267       17.557      859.621
02/24/2014  13:26:00       66.767     -131.002        9.443       74.867       74.769       46.334     5605.092     5590.406     2146.794        1.752        0.667      147.035       37.510        0.065      342.140       17.341      859.596
02/24/2014  13:27:00       40.987      -29.980       59.535       54.862      150.451       80.039     3009.890    22635.577     6406.189        1.908        1.603       50.781       98.393        3.754      342.084       17.246      859.583
02/24/2014  13:28:00       39.273     -110.716       -1.228       63.980       89.883       47.487     4093.381     8078.996     2254.991        1.411        0.721      117.475       53.942        0.211      341.844       16.839      859.575
02/24/2014  13:29:00        6.636      -44.601       25.645       38.712       61.646       32.261     1498.623     3800.214     1040.792        0.451        0.317       45.092       22.266        0.244      342.422       17.820      859.563
02/24/2014  13:30:00        9.189      -85.244       16.410       50.596       67.295       45.025     2559.955     4528.586     2027.270        0.837        0.456       85.738       45.315        0.279      342.303       17.620      859.546
02/24/2014  13:31:00       19.909       12.669       45.548       56.129       60.162       54.190     3150.520     3619.479     2936.530        0.617        0.485       23.598       42.146        3.190      342.304       17.619      859.532
02/24/2014  13:32:00      170.569      115.648       54.440       87.518       64.345       79.130     7659.395     4140.343     6261.620        3.174        0.903      206.078       60.092        0.085      341.842       16.832      859.518
02/24/2014  13:33:00       83.656       78.299       80.650       44.292       66.449       56.861     1961.745     4415.464     3233.211        1.462        0.481      114.582       53.133        0.215      341.775       16.720      859.517
02/24/2014  13:34:00       28.421       68.287       93.857       73.051       71.961       65.729     5336.449     5178.424     4320.345        1.455        0.742       73.966       58.306        0.621      342.183       17.413      859.499
02/24/2014  13:35:00       85.448      104.191      102.992       95.326       63.957       80.201     9087.042     4090.535     6432.202        2.418        0.980      134.748       78.982        0.344      342.070       17.222      859.493
02/24/2014  13:36:00      134.902      106.605       13.191       51.282       36.856       49.108     2629.816     1358.333     2411.558        1.807        0.320      171.940       25.055        0.021      341.768       16.709      859.488
02/24/2014  13:37:00       53.013       55.370       -6.055       60.854       39.969       22.241     3703.215     1597.525      494.669        0.585        0.290       76.657        9.557        0.016      341.928       16.980      859.458
02/24/2014  13:38:00      130.363       59.174       18.899       75.035       64.448       52.055     5630.213     4153.532     2709.737        1.667        0.625      143.164       36.641        0.066      342.062       17.208      859.442
02/24/2014  13:39:00      127.400      -17.413       13.771      106.803      118.019       50.723    11406.938    13928.457     2572.859        2.231        1.395      128.584       48.690        0.143      342.118       17.301      859.452
02/24/2014  13:40:00       55.514      -60.203       22.448       48.758       62.723       56.852     2377.343     3934.198     3232.133        0.837        0.477       81.891       42.207        0.266      342.140       17.341      859.452
02/24/2014  13:41:00      136.184       80.923       89.259      105.958       79.097       69.268    11227.185     6256.352     4798.075        2.767        1.114      158.413       70.197        0.196      341.992       17.087      859.448
02/24/2014  13:42:00       89.119       16.602       76.174       87.040       86.978       58.184     7575.995     7565.222     3385.362        1.627        0.926       90.652       57.310        0.400      342.176       17.401      859.433
02/24/2014  13:43:00       52.698       -4.826       18.938       80.429       51.208       54.304     6468.880     2622.247     2948.967        0.760        0.602       52.919       37.326        0.498      342.156       17.368      859.425
02/24/2014  13:44:00       51.872     -113.132       -7.316       66.170       73.234       39.711     4378.448     5363.216     1576.989        1.343        0.566      124.457       37.576        0.091      342.332       17.666      859.405
02/24/2014  13:45:00       50.521      -52.361       51.833       83.009       94.774       62.041     6890.419     8982.184     3849.124        1.385        0.986       72.760       53.779        0.546      342.450       17.868      859.396
02/24/2014  13:46:00       88.172       46.860       66.473       81.013       86.004       78.304     6563.171     7396.700     6131.454        1.724        1.005       99.851       73.016        0.535      342.313       17.635      859.389
02/24/2014  13:47:00       58.075       80.662      123.825       89.331      105.335       67.398     7980.001    11095.462     4542.486        2.441        1.181       99.393       71.555        0.518      342.194       17.431      859.381
02/24/2014  13:48:00       52.361       -9.057       58.498       57.182      105.354       54.104     3269.766    11099.510     2927.261        1.177        0.865       53.139       65.831        1.535      342.414       17.806      859.370
02/24/2014  13:49:00       29.011       -4.802       22.473       59.337       59.708       49.854     3520.883     3565.042     2485.376        0.547        0.479       29.406       46.882        2.542      342.244       17.517      859.381
02/24/2014  13:50:00      117.418       89.806       67.133       89.102       75.133       56.637     7939.238     5645.033     3207.779        2.157        0.840      147.825       47.898        0.105      342.162       17.375      859.370
02/24/2014  13:51:00      136.459      106.108       58.688       85.040       63.579       55.197     7231.756     4042.285     3046.692        2.382        0.716      172.858       48.165        0.078      342.101       17.272      859.359
02/24/2014  13:52:00       54.817       68.511       75.080       59.669       62.328       63.202     3560.426     3884.730     3994.484        1.239        0.572       87.742       51.300        0.342      342.328       17.660      859.348
02/24/2014  13:53:00       46.585      -46.689        4.272       31.140       47.735       31.188      969.710     2278.674      972.684        0.429        0.211       65.955       16.829        0.065      342.159       17.374      859.346
02/24/2014  13:54:00       79.300       15.430       50.339       86.878       91.836       66.854     7547.704     8433.937     4469.450        1.475        1.023       80.787       68.140        0.711      342.138       17.339      859.335
02/24/2014  13:55:00      153.328      192.402      162.940      128.718       77.143       82.441    16568.291     5951.088     6796.462        5.819        1.466      246.025       85.939        0.122      342.010       17.115      859.325
02/24/2014  13:56:00      194.309      113.812       73.856       93.052       72.096       66.021     8658.759     5197.872     4358.813        3.719        0.911      225.186       40.285        0.032      341.992       17.088      859.336
02/24/2014  13:57:00      117.742       74.190       61.919      123.042      122.964       79.234    15139.434    15120.197     6278.045        2.986        1.827      139.166       63.066        0.205      342.253       17.531      859.322
02/24/2014  13:58:00      180.147       92.206       52.701      107.524       77.308       94.144    11561.515     5976.578     8863.124        3.506        1.320      202.373       66.852        0.109      342.081       17.238      859.307
02/24/2014  13:59:00      125.394      168.280      126.271      106.546       79.515       77.521    11352.044     6322.667     6009.478        4.183        1.184      209.861       77.370        0.136      342.145       17.346      859.297
02/24/2014  14:00:00      108.097      116.839       77.724       52.578       36.962       49.409     2764.442     1366.171     2441.204        1.897        0.329      159.174       21.734        0.019      342.083       17.245      859.301
02/24/2014  14:01:00       58.918       66.546       10.733       52.295       58.475       34.959     2734.773     3419.338     1222.122        0.769        0.369       88.880       33.057        0.138      341.898       16.930      859.281
02/24/2014  14:02:00       62.677        5.694       12.819       36.524       44.149       26.995     1333.979     1949.165      728.728        0.407        0.201       62.935       20.377        0.105      342.012       17.125      859.263
02/24/2014  14:03:00       66.809       59.259       -0.192       45.635       49.879       42.585     2082.530     2487.964     1813.461        0.718        0.319       89.303       26.904        0.091      342.066       17.217      859.246
02/24/2014  14:04:00       76.823       34.890       58.000       86.947       88.199       58.843     7559.780     7779.111     3462.454        1.464        0.940       84.375       59.136        0.491      342.356       17.708      859.235
02/24/2014  14:05:00       38.483       72.210       86.274       94.386      100.492       60.301     8908.775    10098.595     3636.154        1.839        1.132       81.825       53.037        0.420      342.402       17.786      859.218
02/24/2014  14:06:00       43.242       96.961      107.364       71.298       92.936       78.426     5083.417     8637.042     6150.604        2.133        0.994      106.166       75.530        0.506      342.489       17.935      859.221
02/24/2014  14:07:00      171.870       89.805       52.451       85.204       66.030       75.714     7259.722     4360.004     5732.571        2.885        0.868      193.918       52.282        0.073      342.078       17.233      859.204
02/24/2014  14:08:00      146.051      143.701      125.031       78.506       76.692       61.730     6163.195     5881.634     3810.580        3.673        0.793      204.892       55.120        0.072      342.307       17.622      859.190
02/24/2014  14:09:00      128.600       72.959       75.604       97.004       76.583       62.737     9409.732     5865.002     3935.928        2.339        0.961      147.855       58.922        0.159      342.250       17.525      859.193
02/24/2014  14:10:00       71.823      -19.631       28.183       65.220       81.292       49.087     4253.689     6608.420     2409.569        0.980        0.664       74.457       49.243        0.437      342.605       18.132      859.207
02/24/2014  14:11:00      117.014     -212.726      -17.460       80.116       61.279       45.901     6418.500     3755.120     2106.937        3.576        0.614      242.785       34.806        0.021      342.225       17.482      859.204
02/24/2014  14:12:00       78.616      -28.109       37.245       78.745       77.258       62.256     6200.704     5968.850     3875.871        1.220        0.802       83.490       46.664        0.312      342.776       18.422      859.196
02/24/2014  14:13:00       23.585      -90.736       -1.211       64.194       69.418       39.876     4120.923     4818.796     1590.069        0.966        0.526       93.751       50.799        0.294      342.513       17.974      859.198
02/24/2014  14:14:00       60.094       24.345       20.760       35.546       71.969       54.749     1263.544     5179.479     2997.426        0.704        0.472       64.838       48.696        0.564      342.161       17.377      859.179
02/24/2014  14:15:00       14.504       11.681       25.789       21.030       21.557       21.337      442.277      464.710      455.275        0.119        0.068       18.623       15.535        0.696      342.525       17.996      859.156
02/24/2014  14:16:00       30.008       23.087       34.607       36.125       29.855       26.039     1305.017      891.324      678.035        0.275        0.144       37.862       11.765        0.097      342.505       17.961      859.141
02/24/2014  14:17:00       21.233      -51.155       44.075       54.730      102.748       64.316     2995.330    10557.140     4136.510        1.135        0.884       55.387       64.308        1.348      342.693       18.281      859.134
02/24/2014  14:18:00       50.069       28.736      109.332       68.283       86.007       59.254     4662.610     7397.278     3511.031        1.543        0.779       57.729       45.962        0.634      342.619       18.156      859.117
02/24/2014  14:19:00       97.210     -120.431       -0.050       64.155       72.835       37.415     4115.804     5304.952     1399.904        1.738        0.541      154.769       41.599        0.072      342.195       17.433      859.122
02/24/2014  14:20:00      153.338     -151.718      -21.124       62.620       71.586       38.447     3921.279     5124.525     1478.169        2.875        0.526      215.711       48.051        0.050      342.102       17.274      859.097
02/24/2014  14:21:00       32.250       23.210       63.647       47.536      106.813       66.872     2259.628    11409.079     4471.922        1.188        0.907       39.734       79.874        4.041      342.403       17.789      859.083
02/24/2014  14:22:00       79.569       81.729       49.420       70.954       49.391       32.414     5034.525     2439.470     1050.681        1.199        0.426      114.065       40.590        0.127      342.190       17.425      859.084
02/24/2014  14:23:00       55.695       74.832       13.260       48.600       28.475       30.586     2361.962      810.830      935.494        0.649        0.205       93.284       29.646        0.101      342.174       17.401      859.075
02/24/2014  14:24:00       52.472       60.254       -8.041       43.935       31.565       25.875     1930.293      996.372      669.529        0.502        0.180       79.899       29.653        0.138      342.136       17.336      859.065
02/24/2014  14:25:00       63.821       51.815       11.022       23.353       30.887       30.335      545.371      954.034      920.239        0.465        0.121       82.207       16.176        0.039      342.222       17.480      859.041
02/24/2014  14:26:00       30.920       33.098        7.096       39.447       31.988       22.949     1556.073     1023.217      526.666        0.260        0.155       45.294       24.553        0.294      342.478       17.915      859.021
02/24/2014  14:27:00       29.899       71.854       71.012       50.154       47.886       40.365     2515.431     2293.038     1629.293        0.877        0.322       77.827       25.389        0.106      342.749       18.377      859.019
02/24/2014  14:28:00       64.553       96.795      113.788       98.236       87.460       55.870     9650.252     7649.284     3121.467        2.345        1.021      116.346       48.563        0.174      342.566       18.063      859.004
02/24/2014  14:29:00       51.747      129.060      139.458       78.036       63.452       52.061     6089.587     4026.114     2710.326        2.580        0.641      139.047       50.886        0.134      342.418       17.812      859.000
02/24/2014  14:30:00       47.976      113.033      120.136       68.537       65.961       46.207     4697.276     4350.913     2135.049        2.034        0.559      122.793       42.435        0.119      342.678       18.254      858.998
02/24/2014  14:31:00       77.089       65.143       85.181       83.791       70.418       58.972     7020.921     4958.703     3477.696        1.645        0.773      100.927       57.850        0.329      342.739       18.357      859.006
02/24/2014  14:32:00       58.165       25.615       25.898       52.894       40.606       36.993     2797.724     1648.857     1368.500        0.526        0.291       63.555       34.616        0.297      342.398       17.780      859.017
02/24/2014  14:33:00       36.965      -39.864       13.061       26.016       33.559       21.670      676.855     1126.228      469.577        0.270        0.114       54.365       17.086        0.099      342.567       18.067      859.007
02/24/2014  14:34:00        6.312       25.306       19.719       29.127       15.495       18.253      848.375      240.092      333.176        0.125        0.071       26.081       14.490        0.309      342.664       18.232      858.992
02/24/2014  14:35:00       33.607      -26.420        5.928       25.313       37.511       25.147      640.770     1407.043      632.352        0.227        0.134       42.749       21.855        0.261      342.708       18.307      858.977
02/24/2014  14:36:00        5.721      -52.762        8.548       37.371       27.472       21.171     1396.611      754.722      448.231        0.274        0.130       53.072       15.470        0.085      342.759       18.392      858.964
02/24/2014  14:37:00      -63.278      -10.221        0.004       39.978       30.464       19.760     1598.211      928.081      390.438        0.351        0.146       64.098       17.211        0.072      342.819       18.495      858.969
02/24/2014  14:38:00      -53.593      -11.110      -25.565       21.002       20.512       18.598      441.097      420.733      345.898        0.243        0.060       54.733       14.411        0.069      342.408       17.796      858.981
02/24/2014  14:39:00        4.746       24.068       19.955       59.634       35.044       33.193     3556.258     1228.066     1101.776        0.344        0.294       24.531       39.134        2.545      342.901       18.635      858.983
02/24/2014  14:40:00      116.133       48.109       28.216       51.992       45.989       45.064     2703.130     2115.006     2030.794        1.172        0.342      125.703       22.543        0.032      342.577       18.084      858.968
02/24/2014  14:41:00      104.931       22.308       22.314       62.733       86.085       46.494     3935.398     7410.612     2161.707        1.275        0.675      107.276       30.462        0.081      342.757       18.389      858.962
02/24/2014  14:42:00       95.505       44.943       32.098       66.827       46.187       36.152     4465.913     2133.275     1306.989        1.004        0.395      105.551       17.631        0.028      342.555       18.046      858.968
02/24/2014  14:43:00       28.886       33.730        6.922       53.484       50.501       28.161     2860.591     2550.336      793.018        0.411        0.310       44.409       16.969        0.146      342.719       18.326      858.966
02/24/2014  14:44:00       65.525       23.086       30.349       50.039       63.484       37.733     2503.940     4030.176     1423.780        0.685        0.398       69.473       24.779        0.127      342.853       18.555      858.963
02/24/2014  14:45:00       60.901       75.933       72.271       63.539       77.430       52.335     4037.196     5995.439     2738.964        1.373        0.639       97.338       43.349        0.198      343.023       18.842      858.951
02/24/2014  14:46:00       71.617       59.928       42.408       54.035       50.098       46.739     2919.811     2509.813     2184.547        0.906        0.381       93.383       33.847        0.131      342.665       18.232      858.958
02/24/2014  14:47:00       71.645       64.458        5.499       54.268       48.396       30.600     2944.977     2342.189      936.345        0.777        0.311       96.373       22.759        0.056      342.527       18.000      858.962
02/24/2014  14:48:00       30.893      -15.573       -0.309       48.716       60.904       32.524     2373.267     3709.311     1057.786        0.417        0.357       34.596       11.571        0.112      342.764       18.403      858.955
02/24/2014  14:49:00       38.610        5.368       13.827       56.803       83.782       44.746     3226.637     7019.392     2002.192        0.698        0.612       38.982       29.655        0.579      342.773       18.415      858.962
02/24/2014  14:50:00       35.520      -13.078       51.157       56.494       95.420       41.594     3191.583     9104.919     1730.026        0.904        0.701       37.851       44.868        1.405      343.020       18.837      858.952
02/24/2014  14:51:00       67.370       -1.800       83.812       82.173      115.525       82.719     6752.406    13346.126     6842.499        1.925        1.347       67.394       79.484        1.391      342.977       18.763      858.941
02/24/2014  14:52:00       72.182        6.556       85.743       75.500      105.619       68.035     5700.221    11155.451     4628.806        1.704        1.074       72.479       72.801        1.009      342.798       18.459      858.981
02/24/2014  14:53:00      135.748      -47.832       23.439       69.278       78.122       44.702     4799.491     6103.120     1998.301        1.708        0.645      143.928       50.202        0.122      342.508       17.966      858.988
02/24/2014  14:54:00       35.001       31.519       16.591       33.011       42.863       24.331     1089.741     1837.198      591.996        0.301        0.176       47.101       11.156        0.056      342.845       18.541      858.974
02/24/2014  14:55:00       68.623       32.268       12.182       55.664       37.804       35.377     3098.452     1429.148     1251.513        0.584        0.289       75.831       19.364        0.065      342.580       18.088      858.962
02/24/2014  14:56:00       20.443      101.052       -9.378       55.492       64.937       33.322     3079.347     4216.861     1110.335        0.956        0.420      103.099       22.600        0.048      342.513       17.975      858.945
02/24/2014  14:57:00       68.497       72.711        5.623       61.074       49.306       30.736     3730.009     2431.090      944.725        0.856        0.355       99.893       24.901        0.062      342.424       17.825      858.927
02/24/2014  14:58:00       73.482       68.167       32.450       74.890       50.880       50.308     5608.549     2588.821     2530.876        1.091        0.536      100.232       36.926        0.136      342.692       18.280      858.921
02/24/2014  14:59:00      113.621       36.165        7.043       56.772       50.717       41.491     3223.014     2572.174     1721.531        1.089        0.376      119.238       32.591        0.075      342.449       17.868      858.917
02/24/2014  15:00:00      111.657       91.445        6.089       80.740       59.077       45.636     6518.998     3490.067     2082.658        1.648        0.605      144.324       31.689        0.048      342.508       17.967      858.897
02/24/2014  15:01:00       90.279       91.427      -10.170       76.752       70.760       49.888     5890.835     5006.957     2488.799        1.500        0.669      128.488       40.004        0.097      342.522       17.990      858.873
02/24/2014  15:02:00       67.167      232.100      -43.328       81.689       87.501       52.811     6673.046     7656.390     2789.013        3.869        0.856      241.623       45.799        0.036      342.426       17.823      858.864
02/24/2014  15:03:00      -36.664      180.496      -15.869       52.314       60.455       41.646     2736.719     3654.770     1734.430        2.115        0.406      184.182       22.825        0.015      342.436       17.842      858.872
02/24/2014  15:04:00      -56.086       32.564      -18.265       30.939       51.986       23.161      957.207     2702.582      536.439        0.437        0.210       64.854       22.038        0.115      342.431       17.836      858.856
02/24/2014  15:05:00      -93.642       24.075      -14.806       43.612       55.617       28.343     1901.964     3093.245      803.313        0.768        0.290       96.687       21.767        0.051      342.936       18.695      858.832
02/24/2014  15:06:00      -15.937       86.521      -19.674       52.484       58.390       21.330     2754.587     3409.376      454.970        0.737        0.331       87.977       26.992        0.094      342.713       18.315      858.837
02/24/2014  15:07:00       62.136       51.875       -8.892       34.876       26.751       25.920     1216.341      715.642      671.834        0.462        0.130       80.944       18.984        0.055      342.482       17.923      858.842
02/24/2014  15:08:00       73.270       94.564       -4.512       50.944       53.618       39.940     2595.296     2874.890     1595.177        1.070        0.353      119.628       39.748        0.110      342.574       18.078      858.838
02/24/2014  15:09:00       47.327       76.912       20.653       52.112       63.035       39.124     2715.649     3973.357     1530.717        0.840        0.411       90.306       32.580        0.130      342.792       18.448      858.820
02/24/2014  15:10:00      103.887       75.855       14.251       65.154       46.267       43.375     4245.024     2140.659     1881.425        1.251        0.413      128.633       27.123        0.044      342.630       18.174      858.808
02/24/2014  15:11:00       85.909       72.550       16.271       67.027       33.528       38.691     4492.635     1124.121     1496.987        1.001        0.356      112.445       18.448        0.027      342.543       18.027      858.804
02/24/2014  15:12:00       90.833       81.844       68.522       71.207       55.812       49.058     5070.415     3114.963     2406.653        1.512        0.530      122.266       37.911        0.096      342.687       18.270      858.793
02/24/2014  15:13:00       68.849       29.404       36.873       56.920       62.991       40.198     3239.931     3967.848     1615.908        0.789        0.441       74.865       24.737        0.109      342.790       18.446      858.790
02/24/2014  15:14:00       27.236      -42.510       15.034       39.664       34.215       25.237     1573.225     1170.642      636.895        0.308        0.169       50.486       19.259        0.146      343.120       19.010      858.783
02/24/2014  15:15:00       73.823      -42.217       30.122       73.622       69.874       48.250     5420.228     4882.333     2328.070        1.038        0.632       85.042       40.487        0.227      342.914       18.657      858.782
02/24/2014  15:16:00      159.259       81.449       30.249      119.917       60.759       62.712    14380.035     3691.662     3932.849        2.745        1.100      178.878       36.685        0.042      342.787       18.438      858.789
02/24/2014  15:17:00       43.874      -42.012       -5.303       74.643      110.674       45.287     5571.530    12248.672     2050.893        1.179        0.994       60.745       29.087        0.229      342.945       18.709      858.814
02/24/2014  15:18:00       74.629     -136.953       -5.458       62.925       75.277       47.497     3959.497     5666.608     2255.932        1.812        0.594      155.967       39.843        0.065      342.798       18.459      858.835
02/24/2014  15:19:00       54.861      -20.403        9.134       48.910       64.519       42.514     2392.140     4162.687     1807.456        0.593        0.418       58.532       47.242        0.651      342.776       18.422      858.822
02/24/2014  15:20:00       17.028      -11.326        0.740       40.471       44.345       33.219     1637.940     1966.443     1103.484        0.256        0.235       20.450       16.224        0.629      342.991       18.788      858.825
02/24/2014  15:21:00       31.499       47.411       60.054       46.757       41.844       36.272     2186.241     1750.957     1315.635        0.605        0.263       56.921       34.346        0.364      343.148       19.055      858.835
02/24/2014  15:22:00       24.357       39.225       47.832       55.203       45.435       39.076     3047.403     2064.307     1526.934        0.553        0.332       46.172       17.449        0.143      343.028       18.852      858.831
02/24/2014  15:23:00       69.083       57.947       34.465       79.647       50.129       44.495     6343.628     2512.940     1979.808        1.008        0.542       90.168       32.114        0.127      342.744       18.368      858.831
02/24/2014  15:24:00        8.060       93.880      110.775       40.825       55.710       41.015     1666.691     3103.560     1682.206        1.380        0.323       94.225       38.856        0.170      342.831       18.516      858.813
02/24/2014  15:25:00       14.199       94.278      123.772       39.296       62.575       36.401     1544.155     3915.677     1324.998        1.560        0.339       95.341       34.194        0.129      342.768       18.409      858.797
02/24/2014  15:26:00       60.927       56.832       70.429       74.348       52.938       47.260     5527.624     2802.438     2233.498        1.123        0.528       83.319       43.427        0.272      342.786       18.438      858.789
02/24/2014  15:27:00       80.375       15.476        5.546       52.911       42.822       33.062     2799.564     1833.741     1093.073        0.623        0.286       81.852       13.625        0.028      342.950       18.718      858.778
02/24/2014  15:28:00      229.199      139.813       40.204       79.956       68.968       59.052     6392.884     4756.599     3487.154        4.416        0.732      268.477       45.590        0.029      342.763       18.396      858.761
02/24/2014  15:29:00      223.417      134.813       41.689       65.795       54.306       55.314     4328.946     2949.163     3059.621        4.008        0.517      260.939       29.753        0.013      342.546       18.027      858.769
02/24/2014  15:30:00      168.992      110.645        8.212       65.406       57.023       43.231     4277.993     3251.623     1868.899        2.513        0.470      201.992       34.027        0.028      342.534       18.007      858.770
02/24/2014  15:31:00       45.284       99.892       -6.197       44.705       59.395       28.909     1998.561     3527.721      835.721        0.921        0.318      109.677       28.041        0.065      342.573       18.078      858.762
02/24/2014  15:32:00      171.333       72.684       39.543       80.477       57.728       47.482     6476.548     3332.493     2254.571        2.413        0.603      186.113       26.568        0.020      342.696       18.283      858.747
02/24/2014  15:33:00      171.619       72.606       13.941       84.226       57.574       38.853     7093.970     3314.767     1509.551        2.342        0.596      186.346       28.743        0.024      342.597       18.116      858.732
02/24/2014  15:34:00       33.229       24.784       45.224       62.979       54.224       41.941     3966.408     2940.222     1759.017        0.621        0.433       41.454       34.015        0.673      342.812       18.484      858.724
02/24/2014  15:35:00      135.074       65.832        7.480       73.029       54.437       51.744     5333.224     2963.367     2677.399        1.680        0.549      150.262       34.082        0.051      342.898       18.630      858.719
02/24/2014  15:36:00      106.086       62.423       29.990       91.666       50.361       43.462     8402.725     2536.189     1888.938        1.444        0.641      123.089       28.096        0.052      342.772       18.414      858.714
02/24/2014  15:37:00      139.032       77.970       12.332       42.339       42.763       35.921     1792.559     1828.634     1290.344        1.524        0.246      159.402       23.502        0.022      342.679       18.257      858.706
02/24/2014  15:38:00      127.290      102.692       17.862       67.904       51.584       48.158     4610.986     2660.928     2319.174        1.833        0.480      163.550       30.629        0.035      342.624       18.162      858.698
02/24/2014  15:39:00       49.787      131.955       -1.605       62.698       89.676       50.649     3931.067     8041.844     2565.344        1.721        0.727      141.035       51.985        0.136      342.685       18.266      858.694
02/24/2014  15:40:00       68.948       46.336       45.082       80.516       61.658       40.531     6482.818     3801.745     1642.788        1.043        0.596       83.072       32.551        0.154      342.844       18.537      858.693
02/24/2014  15:41:00       79.965       51.670       64.735       70.309       67.242       59.558     4943.387     4521.442     3547.131        1.313        0.651       95.206       51.513        0.293      342.875       18.590      858.680
02/24/2014  15:42:00       81.020      111.670      120.150       56.561       75.132       55.847     3199.117     5644.775     3118.858        2.271        0.598      137.965       55.391        0.161      342.619       18.154      858.680
02/24/2014  15:43:00       99.319       77.446       89.064       70.736       66.546       43.144     5003.625     4428.380     1861.397        1.754        0.565      125.945       34.027        0.073      342.605       18.129      858.682
02/24/2014  15:44:00      107.996       84.993       69.476       63.192       42.419       44.690     3993.180     1799.385     1997.173        1.575        0.389      137.430       38.061        0.077      342.749       18.377      858.679
02/24/2014  15:45:00      103.512       59.335       33.701       63.283       49.827       43.782     4004.775     2482.724     1916.857        1.189        0.420      119.312       38.008        0.101      342.792       18.450      858.678
02/24/2014  15:46:00      106.364       54.972       19.439       55.724       34.321       44.608     3105.179     1177.936     1989.865        1.049        0.314      119.729       40.390        0.114      342.638       18.188      858.678
02/24/2014  15:47:00       10.385       31.168       65.294       29.399       46.958       31.594      864.318     2205.036      998.158        0.470        0.203       32.852       32.989        1.008      343.004       18.811      858.649
02/24/2014  15:48:00       56.080       57.006       32.938       53.324       54.473       49.194     2843.477     2967.349     2420.097        0.785        0.412       79.967       36.428        0.208      343.028       18.850      858.638
02/24/2014  15:49:00      203.081      116.425       49.109       85.299       63.280       49.170     7275.852     4004.297     2417.648        3.545        0.685      234.087       40.937        0.031      342.816       18.489      858.631
02/24/2014  15:50:00      188.847      105.538        6.625       76.646       47.938       48.886     5874.554     2298.007     2389.833        2.870        0.528      216.337       23.489        0.012      342.568       18.065      858.618
02/24/2014  15:51:00      145.933       77.941        7.421       64.258       46.697       47.520     4129.100     2180.647     2258.118        1.800        0.428      165.442       32.510        0.039      342.686       18.268      858.618
02/24/2014  15:52:00       60.804       67.859       -3.629       46.658       56.463       28.902     2176.953     3188.024      835.338        0.726        0.310       91.115       19.213        0.044      342.716       18.319      858.612
02/24/2014  15:53:00       45.652       59.709       10.090       43.039       63.293       32.326     1852.337     4006.000     1044.982        0.633        0.345       75.161       34.263        0.208      342.844       18.538      858.613
02/24/2014  15:54:00       57.373       78.714       -3.668       42.608       37.703       30.023     1815.426     1421.538      901.393        0.682        0.207       97.404       25.986        0.071      342.762       18.398      858.619
02/24/2014  15:55:00       62.571       37.336        2.298       57.360       38.076       23.081     3290.144     1449.796      532.754        0.529        0.264       72.863       29.281        0.161      342.840       18.531      858.617
02/24/2014  15:56:00       59.718       59.888        9.285       59.527       49.891       31.647     3543.412     2489.086     1001.563        0.714        0.352       84.575       26.975        0.102      342.798       18.459      858.616
02/24/2014  15:57:00       95.192       48.938       26.290       52.346       49.219       32.588     2740.073     2422.513     1061.948        0.918        0.311      107.035       30.431        0.081      342.796       18.456      858.606
02/24/2014  15:58:00       47.923      -53.813        5.493       38.356       33.582       24.066     1471.182     1127.731      579.176        0.420        0.159       72.058       18.059        0.063      342.805       18.470      858.599
02/24/2014  15:59:00       49.860       10.492        1.556       28.323       54.258       21.778      802.218     2943.915      474.284        0.341        0.211       50.952       22.049        0.187      342.764       18.400      858.587
02/24/2014  16:00:00       95.994       48.044        2.121       42.978       33.277       29.713     1847.123     1107.387      882.855        0.768        0.192      107.346       19.031        0.031      342.702       18.297      858.572
02/24/2014  16:01:00       15.006      114.983      -14.818       43.217       39.183       25.783     1867.709     1535.276      664.739        0.887        0.203      115.958       16.428        0.020      342.748       18.373      858.557
02/24/2014  16:02:00       54.614       78.809       -5.101       50.834       50.108       40.689     2584.070     2510.817     1655.634        0.798        0.338       95.883       34.278        0.128      342.699       18.292      858.552
02/24/2014  16:03:00        7.859       43.915        0.655       43.439       38.207       22.827     1886.970     1459.813      521.075        0.293        0.193       44.613       22.601        0.257      342.818       18.495      858.542
02/24/2014  16:04:00       26.205       29.658       -7.305       17.775       25.059       23.866      315.956      627.929      569.600        0.157        0.076       39.577       18.341        0.215      342.753       18.384      858.537
02/24/2014  16:05:00       64.262       79.156       -0.351       40.829       30.082       30.165     1667.040      904.901      909.918        0.694        0.174      101.957       16.661        0.027      342.735       18.351      858.542
02/24/2014  16:06:00      140.463       99.803       26.012       66.562       51.300       39.732     4430.484     2631.701     1578.611        1.950        0.432      172.309       24.004        0.019      342.729       18.339      858.545
02/24/2014  16:07:00       48.526       51.249       56.165       52.959       55.941       29.199     2804.684     3129.389      852.570        0.746        0.339       70.578       28.360        0.161      342.842       18.534      858.550
02/24/2014  16:08:00        1.707       10.145        8.101       20.958       28.788       24.290      439.236      828.722      590.006        0.101        0.093       10.288       15.133        2.164      342.999       18.802      858.548
02/24/2014  16:09:00       72.685       17.689       32.860       84.295       68.700       50.884     7105.655     4719.661     2589.155        1.054        0.721       74.806       44.961        0.361      342.772       18.415      858.540
02/24/2014  16:10:00       22.298       48.306       49.650       45.261       51.347       52.820     2048.521     2636.478     2789.974        0.638        0.374       53.204       35.919        0.456      342.972       18.756      858.536
02/24/2014  16:11:00       66.464       54.840        7.777       44.258       28.378       24.549     1958.771      805.323      602.647        0.543        0.168       86.168       12.036        0.020      342.729       18.342      858.544
02/24/2014  16:12:00       36.586        0.013       30.983       48.308       61.137       44.663     2333.642     3737.756     1994.798        0.518        0.403       36.586       46.855        1.640      342.875       18.590      858.534
02/24/2014  16:13:00       25.269       59.587       81.438       63.176       52.613       47.607     3991.211     2768.134     2266.421        0.992        0.451       64.723       48.058        0.551      342.865       18.575      858.529
02/24/2014  16:14:00       31.505       54.887       35.404       57.962       30.322       33.911     3359.621      919.397     1149.954        0.534        0.271       63.286       30.093        0.226      342.897       18.629      858.523
02/24/2014  16:15:00       72.667       42.878       14.771       46.834       27.006       18.938     2193.402      729.316      358.629        0.531        0.164       84.374       14.701        0.030      342.844       18.538      858.518
02/24/2014  16:16:00        5.368      124.714      -26.074       28.700       36.521       17.717      823.690     1333.776      313.892        0.937        0.124      124.830       12.243        0.010      342.798       18.459      858.518
02/24/2014  16:17:00       42.626       70.989       15.698       45.526       56.990       36.047     2072.628     3247.890     1299.389        0.686        0.331       82.804       27.381        0.109      342.750       18.378      858.513
02/24/2014  16:18:00       20.177       27.250       16.187       50.652       43.764       38.368     2565.652     1915.322     1472.125        0.368        0.298       33.907       26.760        0.623      342.802       18.467      858.512
02/24/2014  16:19:00       30.835       28.148        3.672       18.809       29.751       17.983      353.797      885.106      323.374        0.166        0.078       41.750       16.078        0.148      342.835       18.525      858.509
02/24/2014  16:20:00       47.032       73.242       70.108       51.473       49.856       37.442     2649.434     2485.616     1401.923        0.951        0.327       87.042       29.840        0.118      342.892       18.620      858.518
02/24/2014  16:21:00       85.958       76.084       80.322       86.026       56.795       60.839     7400.508     3225.717     3701.374        1.698        0.716      114.794       40.122        0.122      342.886       18.608      858.511
02/24/2014  16:22:00      226.082      129.787       64.130       74.953       62.549       65.560     5617.946     3912.343     4298.092        4.295        0.691      260.687       46.097        0.031      342.741       18.359      858.523
02/24/2014  16:23:00      152.082       78.927        5.242       41.732       45.408       33.985     1741.574     2061.861     1155.002        1.717        0.248      171.343       26.578        0.024      342.731       18.344      858.552
02/24/2014  16:24:00       56.656       42.151       14.890       33.378       33.367       23.890     1114.093     1113.369      570.714        0.400        0.140       70.616       14.719        0.043      342.819       18.497      858.563
02/24/2014  16:25:00       22.498        2.375        8.850       17.355       13.460       14.410      301.207      181.173      207.658        0.064        0.035       22.623        5.621        0.062      342.842       18.535      858.575
02/24/2014  16:26:00       26.861       23.598       16.988       34.978       24.845       20.783     1223.458      617.287      431.952        0.192        0.114       35.754       16.996        0.226      342.848       18.545      858.583
02/24/2014  16:27:00      152.513       86.955       25.525       46.956       41.454       35.217     2204.843     1718.429     1240.233        1.832        0.258      175.560       17.259        0.010      342.794       18.452      858.599
02/24/2014  16:28:00      162.767      101.486       40.587       70.835       64.224       52.259     5017.636     4124.755     2730.963        2.515        0.594      191.814       40.472        0.045      342.723       18.330      858.600
02/24/2014  16:29:00      113.082       69.860       36.324       65.273       59.957       51.323     4260.579     3594.885     2634.024        1.474        0.524      132.920       27.339        0.042      342.762       18.398      858.620
02/24/2014  16:30:00       61.495       36.041       42.482       34.691       28.687       32.707     1203.452      822.936     1069.754        0.499        0.155       71.279       20.271        0.081      342.677       18.254      858.627
02/24/2014  16:31:00       15.684        0.217       20.941       24.579       18.352       14.590      604.148      336.804      212.863        0.092        0.058       15.686       13.927        0.788      342.803       18.467      858.620
02/24/2014  16:32:00       33.735      -11.737        9.381       22.978       25.017       19.401      528.008      625.856      376.395        0.145        0.077       35.719       16.367        0.210      342.777       18.423      858.619
02/24/2014  16:33:00       20.179       27.014       48.723       32.115       27.877       21.419     1031.345      777.132      458.768        0.289        0.113       33.719       18.911        0.315      342.770       18.412      858.605
02/24/2014  16:34:00        8.336       15.140       40.474       36.495       32.273       26.401     1331.893     1041.565      697.033        0.250        0.154       17.283       18.936        1.200      342.906       18.644      858.588
02/24/2014  16:35:00      136.610       60.469       13.972       42.810       54.932       34.153     1832.734     3017.540     1166.403        1.426        0.301      149.395       22.448        0.023      342.660       18.224      858.574
02/24/2014  16:36:00       48.517       25.560        3.993       30.641       21.377       19.250      938.859      456.974      370.558        0.239        0.088       54.838        8.417        0.024      342.714       18.317      858.568
02/24/2014  16:37:00       45.083       47.435       23.488       29.450       23.091       26.180      867.274      533.185      685.417        0.346        0.104       65.441       24.938        0.145      342.677       18.254      858.556
02/24/2014  16:38:00       37.582       42.446       -9.680       42.331       28.404       17.932     1791.934      806.772      321.542        0.311        0.146       56.693       16.926        0.089      342.751       18.379      858.554
02/24/2014  16:39:00       26.579      124.768      -19.105       20.578       42.958       19.451      423.469     1845.367      378.339        0.964        0.132      127.568       22.845        0.032      342.712       18.312      858.543
02/24/2014  16:40:00       74.113       71.854       28.211       43.739       32.995       30.526     1913.082     1088.691      931.841        0.769        0.197      103.227       15.814        0.023      342.717       18.322      858.536
02/24/2014  16:41:00      104.389       83.277       13.753       57.511       42.744       39.304     3307.475     1827.018     1544.824        1.235        0.334      133.537       24.487        0.034      342.737       18.356      858.540
02/24/2014  16:42:00       51.954       87.539      -13.354       44.538       63.694       38.395     1983.658     4056.890     1474.152        0.903        0.376      101.795       31.499        0.096      342.681       18.260      858.538
02/24/2014  16:43:00       38.605       97.623       -6.608       61.218       86.184       40.371     3747.600     7427.694     1629.855        1.193        0.640      104.979       41.506        0.156      342.616       18.149      858.536
02/24/2014  16:44:00       25.146      100.185       -7.478       44.797       77.309       42.176     2006.763     5976.701     1778.820        1.024        0.488      103.292       40.204        0.151      342.589       18.104      858.537
02/24/2014  16:45:00      101.344       77.008        4.282       93.415       55.759       41.156     8726.361     3109.073     1693.833        1.487        0.676      127.282       29.837        0.055      342.584       18.096      858.539
02/24/2014  16:46:00      150.665      122.035       -7.477       91.062       57.421       52.019     8292.333     3297.145     2705.984        2.597        0.715      193.888       38.106        0.039      342.605       18.129      858.549
02/24/2014  16:47:00       60.758      124.318      -18.739       44.775       65.330       40.447     2004.793     4268.040     1635.982        1.370        0.395      138.371       41.626        0.090      342.581       18.091      858.561
02/24/2014  16:48:00       45.626      186.474      -33.493       33.427       35.026       28.640     1117.392     1226.795      820.243        2.057        0.158      191.975       23.473        0.015      342.581       18.090      858.571
02/24/2014  16:49:00        6.821      119.278      -17.061       34.699       56.784       19.717     1204.040     3224.391      388.743        0.969        0.241      119.473       22.671        0.036      342.638       18.187      858.582
02/24/2014  16:50:00       20.345       24.496        4.529       30.370       16.150       10.736      922.333      260.824      115.258        0.117        0.065       31.843       12.962        0.166      342.647       18.203      858.585
02/24/2014  16:51:00       92.632       53.537       35.015       31.567       23.299       30.888      996.493      542.856      954.041        0.758        0.125      106.990       22.041        0.042      342.617       18.152      858.582
02/24/2014  16:52:00      101.110       46.135       28.740       57.017       36.053       31.249     3250.918     1299.817      976.478        0.935        0.276      111.138       26.167        0.055      342.634       18.181      858.581
02/24/2014  16:53:00       84.151       58.695       16.835       42.431       28.503       30.571     1800.387      812.436      934.589        0.718        0.177      102.599       13.792        0.018      342.623       18.161      858.580
02/24/2014  16:54:00       91.564       71.277       23.672       42.614       29.772       30.230     1815.930      886.401      913.837        0.882        0.181      116.036       17.336        0.022      342.613       18.145      858.589
02/24/2014  16:55:00       52.387       65.540       -2.972       30.228       48.713       28.841      913.710     2372.925      831.802        0.558        0.206       83.904       24.752        0.087      342.642       18.194      858.593
02/24/2014  16:56:00       19.377      124.038      -19.032       42.731       43.973       21.251     1825.957     1933.636      451.620        1.017        0.211      125.542       19.858        0.025      342.657       18.219      858.598
02/24/2014  16:57:00      -14.167       21.039      -10.974       14.411       14.195       13.718      207.670      201.511      188.190        0.068        0.030       25.364        7.917        0.097      342.863       18.570      858.595
02/24/2014  16:58:00      -66.883       -6.959       10.958       26.311       20.965       15.488      692.254      439.545      239.886        0.301        0.069       67.244       11.649        0.030      343.080       18.940      858.592
02/24/2014  16:59:00      -15.444        5.892        4.930       35.757       24.994       13.225     1278.539      624.718      174.889        0.119        0.104       16.530       14.037        0.721      342.918       18.664      858.598
02/24/2014  17:00:00      -39.515       96.542      -14.649       36.870       28.654       16.655     1359.421      821.074      277.382        0.678        0.123      104.315       12.263        0.014      342.828       18.511      858.600
02/24/2014  17:01:00        5.823      154.360      -20.911       44.403       44.444       24.138     1971.592     1975.248      582.666        1.441        0.226      154.469       23.106        0.022      342.645       18.198      858.604
02/24/2014  17:02:00       65.955       98.523       -9.187       24.601       66.051       28.502      605.205     4362.708      812.384        0.996        0.289      118.561       32.891        0.077      342.614       18.146      858.626
02/24/2014  17:03:00       67.932       -1.628       38.319       43.482       38.776       29.809     1890.699     1503.609      888.567        0.518        0.214       67.952       21.884        0.104      342.637       18.186      858.625
02/24/2014  17:04:00       33.752       -7.511        9.855       30.072       23.779       27.635      904.313      565.449      763.671        0.176        0.112       34.577       18.918        0.299      342.682       18.262      858.622
02/24/2014  17:05:00       11.230        2.746        1.752       19.832       22.467       24.546      393.320      504.767      602.516        0.082        0.075       11.561       22.222        3.695      342.716       18.321      858.625
02/24/2014  17:06:00       37.276       35.827       -0.646       20.148       17.967       18.108      405.930      322.822      327.899        0.186        0.053       51.702       11.830        0.052      342.637       18.185      858.629
02/24/2014  17:07:00      -29.010       45.089       -4.040       25.866       30.869       19.845      669.073      952.879      393.835        0.245        0.101       53.615       16.739        0.097      342.751       18.379      858.628
02/24/2014  17:08:00      -77.734       74.983      -23.044       28.737       54.712       19.840      825.804     2993.448      393.625        0.820        0.211      108.004       29.261        0.073      342.750       18.377      858.628
02/24/2014  17:09:00      -66.591      100.880      -20.680       30.591       29.277       20.763      935.818      857.132      431.105        0.863        0.111      120.877       15.892        0.017      342.701       18.295      858.629
02/24/2014  17:10:00      -71.428       98.474      -18.841       31.242       38.811       20.716      976.072     1506.275      429.173        0.903        0.146      121.652       18.858        0.024      342.666       18.236      858.631
02/24/2014  17:11:00      -66.253      107.332      -13.427       26.431       40.926       22.380      698.612     1674.917      500.848        0.948        0.144      126.133       17.203        0.019      342.638       18.188      858.627
02/24/2014  17:12:00      -60.779      128.986      -25.519       31.616       29.630       17.652      999.561      877.954      311.590        1.159        0.109      142.589       16.349        0.013      342.649       18.208      858.631
02/24/2014  17:13:00      -21.621      114.991      -11.213       20.737       33.211       16.838      430.043     1102.954      283.530        0.782        0.091      117.006       11.576        0.010      342.644       18.197      858.632
02/24/2014  17:14:00       11.125      152.535      -27.600       20.319       22.341        9.238      412.882      499.099       85.342        1.257        0.050      152.940        9.236        0.004      342.646       18.200      858.639
02/24/2014  17:15:00      -21.864      141.510      -28.892       15.982       23.521        9.741      255.424      553.229       94.892        1.112        0.045      143.189        9.275        0.004      342.658       18.222      858.652
02/24/2014  17:16:00      -19.068      118.866      -22.361       19.366       15.661        9.884      375.057      245.275       97.693        0.786        0.036      120.386        8.377        0.005      342.666       18.234      858.659
02/24/2014  17:17:00      -22.263      105.096      -20.306       17.475       25.761       12.269      305.392      663.629      150.522        0.654        0.056      107.429        9.216        0.007      342.689       18.274      858.656
02/24/2014  17:18:00       10.105      109.378      -21.298       17.260       20.727       10.853      297.908      429.627      117.792        0.668        0.042      109.843       10.034        0.008      342.627       18.170      858.654
02/24/2014  17:19:00       13.002      102.187      -20.993       15.374       20.897       10.242      236.345      436.677      104.889        0.591        0.039      103.010       10.730        0.011      342.627       18.167      858.658
02/24/2014  17:20:00       17.924       89.646      -16.451       15.467       21.726        8.232      239.242      472.007       67.764        0.470        0.039       91.420        7.139        0.006      342.602       18.125      858.658
02/24/2014  17:21:00       17.960      105.482      -22.109       15.689       24.494       12.239      246.137      599.932      149.790        0.647        0.050      107.000       11.144        0.011      342.607       18.134      858.658
02/24/2014  17:22:00       16.281       47.460       -9.253       18.578       31.669       15.617      345.132     1002.923      243.899        0.210        0.080       50.174       15.410        0.094      342.522       17.990      858.659
02/24/2014  17:23:00        9.838       24.151        1.521       26.288       21.488       18.220      691.082      461.722      331.961        0.108        0.074       26.078       11.415        0.192      342.511       17.972      858.664
02/24/2014  17:24:00       31.614       49.858       -6.793       33.910       30.817       25.824     1149.903      949.681      666.863        0.315        0.138       59.036       19.555        0.110      342.451       17.869      858.662
02/24/2014  17:25:00       28.862       85.172       -6.061       42.110       55.936       37.632     1773.279     3128.791     1416.136        0.722        0.316       89.929       39.815        0.196      342.411       17.801      858.658
02/24/2014  17:26:00       23.307      115.313      -19.612       30.633       37.696       20.397      938.387     1421.012      416.048        0.850        0.139      117.645       17.689        0.023      342.384       17.757      858.655
02/24/2014  17:27:00       31.174       57.896       -5.986       41.869       47.053       27.559     1753.043     2213.944      759.520        0.454        0.236       65.755       30.552        0.216      342.290       17.596      858.646
02/24/2014  17:28:00       27.995       84.372      -10.044       30.479       50.685       20.542      928.960     2569.001      421.969        0.596        0.196       88.895       25.654        0.083      342.299       17.611      858.650
02/24/2014  17:29:00       21.259       55.355       -1.385       36.148       36.498       25.978     1306.657     1332.110      674.863        0.342        0.166       59.296       24.583        0.172      342.242       17.515      858.655
02/24/2014  17:30:00       43.073       75.097       -6.648       27.679       45.066       26.571      766.128     2030.942      706.020        0.552        0.175       86.573       30.099        0.121      342.212       17.463      858.661
02/24/2014  17:31:00       47.108       51.427        1.435       38.581       27.410       27.550     1488.495      751.283      759.030        0.393        0.150       69.742       18.762        0.072      342.170       17.392      858.669
02/24/2014  17:32:00       24.865       38.709       12.199       36.449       33.892       33.760     1328.546     1148.647     1139.769        0.294        0.181       46.007       19.494        0.180      342.203       17.449      858.675
02/24/2014  17:33:00       36.746       38.612       -5.119       21.944       26.938       15.611      481.537      725.643      243.692        0.216        0.073       53.302       14.723        0.076      342.194       17.434      858.676
02/24/2014  17:34:00       23.450       78.637      -13.732       18.571       19.707       13.237      344.899      388.353      175.227        0.392        0.045       82.059       11.241        0.019      342.306       17.622      858.677
02/24/2014  17:35:00       20.466       79.473      -13.317       21.566       33.068       19.302      465.104     1093.489      372.583        0.442        0.097       82.066       17.447        0.045      342.256       17.537      858.691
02/24/2014  17:36:00       28.772       89.616      -14.885       25.364       32.793       17.966      643.354     1075.411      322.781        0.556        0.102       94.122       10.618        0.013      342.259       17.543      858.700
02/24/2014  17:37:00       11.636       40.567       -4.886       12.928       24.358       13.373      167.133      593.329      178.845        0.137        0.047       42.203       11.218        0.071      342.189       17.424      858.709
02/24/2014  17:38:00       19.113       53.137       -8.963       20.249       33.230       16.903      410.012     1104.263      285.712        0.253        0.090       56.470       20.169        0.128      342.181       17.409      858.713
02/24/2014  17:39:00       12.520       77.850      -15.900       21.511       18.145       10.119      462.708      329.258      102.395        0.368        0.045       78.851        7.695        0.010      342.256       17.537      858.721
02/24/2014  17:40:00       24.894       95.085      -19.067       27.001       34.066       15.203      729.044     1160.524      231.124        0.607        0.106       98.289       16.250        0.027      342.257       17.541      858.739
02/24/2014  17:41:00       17.682      125.483      -21.478       25.003       23.804       18.045      625.165      566.611      325.613        0.902        0.076      126.722       15.593        0.015      342.369       17.730      858.748
02/24/2014  17:42:00       17.041      135.659      -22.722       27.196       28.436       11.707      739.646      808.610      137.052        1.045        0.084      136.725       11.510        0.007      342.345       17.689      858.749
02/24/2014  17:43:00       -1.414      132.642      -21.380       20.504       21.173       11.737      420.410      448.302      137.764        0.953        0.050      132.650        9.113        0.005      342.348       17.694      858.760
02/24/2014  17:44:00      -23.932      107.862      -22.687       29.436       29.698       14.493      866.453      881.944      210.044        0.734        0.098      110.485       15.909        0.021      342.326       17.657      858.774
02/24/2014  17:45:00      -63.454       41.254      -16.504       17.669       38.702       11.165      312.191     1497.848      124.663        0.397        0.097       75.686       12.878        0.029      342.201       17.444      858.773
02/24/2014  17:46:00      -50.936       -4.413        0.770       47.476       30.031       28.215     2253.958      901.864      796.110        0.328        0.198       51.127       25.737        0.253      341.748       16.676      858.784
02/24/2014  17:47:00     -108.589      -19.211      -11.284       53.479       39.288       23.746     2860.002     1543.562      563.875        0.863        0.248      110.275       26.527        0.058      341.652       16.514      858.783
02/24/2014  17:48:00     -100.118      -17.567      -12.643       40.522       33.441       15.157     1642.048     1118.327      229.745        0.674        0.150      101.648       13.703        0.018      341.670       16.545      858.788
02/24/2014  17:49:00      -59.633      -13.401       -3.511       30.376       28.473       17.716      922.728      810.693      313.873        0.290        0.102       61.121        9.458        0.024      341.609       16.441      858.799
02/24/2014  17:50:00     -102.752      -23.796       -9.486       39.589       29.477       21.698     1567.288      868.919      470.815        0.706        0.145      105.471       19.715        0.035      341.571       16.376      858.800
02/24/2014  17:51:00      -88.643      -20.909       -7.931       31.117       26.876       15.678      968.288      722.301      245.802        0.515        0.097       91.076       13.326        0.021      341.473       16.210      858.814
02/24/2014  17:52:00     -102.931      -13.101      -17.848       25.184       22.815       18.475      634.223      520.531      341.315        0.629        0.075      103.762       12.912        0.015      341.418       16.116      858.811
02/24/2014  17:53:00     -124.465      -11.869      -13.877       24.916       22.257       17.892      620.828      495.389      320.124        0.863        0.072      125.030       16.408        0.017      341.398       16.084      858.820
02/24/2014  17:54:00     -100.872      -22.894       -7.488       22.344       26.476       18.514      499.246      700.959      342.750        0.615        0.077      103.438        9.574        0.009      341.327       15.964      858.820
02/24/2014  17:55:00     -114.531       -1.987      -16.772       39.866       32.007       21.130     1589.283     1024.423      446.492        0.823        0.153      114.548       19.797        0.030      341.236       15.809      858.832
02/24/2014  17:56:00     -193.700       39.395      -20.514       42.143       22.491       18.790     1776.012      505.850      353.068        2.106        0.132      197.665       16.295        0.007      341.143       15.650      858.830
02/24/2014  17:57:00     -121.178       18.974      -16.348       43.377       31.847       18.325     1881.587     1014.209      335.792        0.927        0.162      122.655       13.676        0.012      341.161       15.681      858.849
02/24/2014  17:58:00      -94.555       79.893      -24.387       51.813       44.527       29.861     2684.540     1982.632      891.672        1.074        0.278      123.788       33.002        0.071      341.337       15.981      858.859
02/24/2014  17:59:00     -119.500       68.809      -18.921       42.280       55.342       34.825     1787.561     3062.748     1212.801        1.272        0.303      137.895       31.862        0.053      341.301       15.917      858.864
02/24/2014  18:00:00     -153.546      101.954      -18.992       81.485       49.409       42.422     6639.846     2441.242     1799.618        2.260        0.544      184.312       43.555        0.056      341.258       15.844      858.869
02/24/2014  18:01:00     -109.987       78.673      -16.473       70.214       46.244       33.601     4929.994     2138.501     1129.040        1.338        0.410      135.229       35.791        0.070      341.241       15.817      858.866
02/24/2014  18:02:00      -88.885       75.366       -5.869       41.670       63.325       29.817     1736.355     4010.019      889.079        1.012        0.332      116.535       28.994        0.062      341.161       15.682      858.868
02/24/2014  18:03:00     -138.972      158.422      -30.560       54.140       68.992       45.915     2931.120     4759.896     2108.218        2.757        0.490      210.739       42.760        0.041      341.109       15.590      858.883
02/24/2014  18:04:00     -120.425      174.512      -21.383       63.302       65.372       45.710     4007.163     4273.560     2089.400        2.789        0.519      212.030       40.610        0.037      341.092       15.562      858.896
02/24/2014  18:05:00     -155.603      167.209      -45.068       60.213       57.545       37.685     3625.580     3311.449     1420.156        3.128        0.418      228.410       36.031        0.025      341.067       15.518      858.918
02/24/2014  18:06:00      -99.837       74.363       -0.653       60.806       43.036       38.374     3697.313     1852.096     1472.551        1.126        0.351      124.488       35.403        0.081      341.057       15.504      858.930
02/24/2014  18:07:00     -119.644      104.944      -31.608       44.700       47.658       24.995     1998.092     2271.328      624.746        1.561        0.245      159.148       28.807        0.033      341.118       15.609      858.954
02/24/2014  18:08:00      -77.966       83.035      -19.699       53.492       62.766       29.429     2861.445     3939.523      866.052        1.051        0.383      113.901       31.345        0.076      341.079       15.541      858.973
02/24/2014  18:09:00      -57.917      148.158      -30.710       49.414       54.206       29.188     2441.766     2938.311      851.929        1.624        0.312      159.076       22.437        0.020      341.122       15.615      858.990
02/24/2014  18:10:00      -38.306      112.999      -20.030       43.339       65.139       25.212     1878.276     4243.093      635.646        1.070        0.338      119.315       30.828        0.067      341.085       15.553      859.006
02/24/2014  18:11:00      -62.075      119.443      -26.768       32.197       57.930       26.076     1036.673     3355.859      679.949        1.195        0.254      134.611       31.489        0.055      341.083       15.549      859.028
02/24/2014  18:12:00      -13.184      109.177      -25.636       22.358       24.540       16.619      499.881      602.236      276.202        0.706        0.069      109.970       13.252        0.015      341.020       15.444      859.042
02/24/2014  18:13:00      -32.225       82.225      -14.293       39.738       30.240       18.228     1579.088      914.428      332.252        0.541        0.141       88.314       12.799        0.021      341.044       15.484      859.037
02/24/2014  18:14:00       67.661       70.336        6.592      102.028       45.161       36.495    10409.682     2039.539     1331.888        1.167        0.689       97.597       19.858        0.041      340.869       15.190      859.057
02/24/2014  18:15:00       85.437       67.545       29.496       52.402       42.767       40.685     2745.924     1829.006     1655.241        0.948        0.312      108.912       28.580        0.069      340.656       14.827      859.076
02/24/2014  18:16:00       71.682       39.947       24.267       47.106       32.312       30.425     2219.001     1044.052      925.656        0.576        0.209       82.061       27.295        0.111      340.666       14.843      859.079
02/24/2014  18:17:00       14.029       52.869        5.017       27.186       26.091       31.921      739.097      680.730     1018.977        0.273        0.122       54.699       17.345        0.101      340.761       15.004      859.083
02/24/2014  18:18:00       48.171       42.091       -7.870       26.444       29.132       16.889      699.284      848.671      285.228        0.299        0.092       63.969       14.740        0.053      340.714       14.923      859.100
02/24/2014  18:19:00      -38.205      103.315      -31.529       46.983       37.396       17.428     2207.365     1398.482      303.730        0.852        0.195      110.153       10.180        0.009      340.858       15.168      859.123
02/24/2014  18:20:00       -9.985       68.173      -18.469       27.986       24.244       16.619      783.211      587.771      276.181        0.337        0.082       68.901        8.773        0.016      340.794       15.062      859.131
02/24/2014  18:21:00        8.565       73.066       -5.652       35.702       53.088       22.922     1274.642     2818.359      525.399        0.503        0.231       73.567       31.563        0.184      340.718       14.931      859.142
02/24/2014  18:22:00       -0.032      133.763      -35.276       44.143       31.670       17.642     1948.595     1002.966      311.242        1.120        0.163      133.763       20.921        0.024      340.793       15.057      859.155
02/24/2014  18:23:00      -44.210       85.970      -15.436       34.218       46.318       20.011     1170.863     2145.375      400.427        0.665        0.186       96.672       16.789        0.030      340.865       15.180      859.160
02/24/2014  18:24:00      -42.535       24.495      -14.601       32.667       29.467       17.981     1067.165      868.325      323.315        0.244        0.113       49.084       20.374        0.172      340.885       15.214      859.165
02/24/2014  18:25:00      -46.557       90.151      -20.880       58.811       55.658       25.976     3458.703     3097.766      674.736        0.898        0.362      101.463       21.849        0.046      340.845       15.147      859.179
02/24/2014  18:26:00      -79.724       53.814      -18.345       26.946       36.173       20.683      726.062     1308.455      427.782        0.602        0.123       96.186       14.122        0.022      340.853       15.162      859.191
02/24/2014  18:27:00      -73.126       54.185      -12.171       39.300       61.748       30.661     1544.524     3812.822      940.077        0.736        0.315       91.014       33.482        0.135      340.859       15.171      859.199
02/24/2014  18:28:00      -84.034       29.947       -7.621       48.581       34.440       25.042     2360.074     1186.125      627.093        0.609        0.209       89.210       14.410        0.026      340.827       15.116      859.201
02/24/2014  18:29:00     -119.096       10.949      -14.834       45.146       41.305       32.008     2038.144     1706.109     1024.508        0.965        0.238      119.598       30.110        0.063      340.876       15.199      859.210
02/24/2014  18:30:00     -108.343      -31.289        1.120       46.060       37.115       27.794     2121.559     1377.556      772.507        0.849        0.214      112.771       24.204        0.046      340.576       14.692      859.224
02/24/2014  18:31:00      -79.684       45.927      -13.804       37.979       45.077       28.243     1442.392     2031.949      797.669        0.646        0.214       91.972       23.619        0.066      340.636       14.794      859.248
02/24/2014  18:32:00     -116.832       33.812       -7.408       36.548       68.359       29.258     1335.732     4672.953      856.057        1.085        0.343      121.627       10.774        0.008      340.666       14.844      859.262
02/24/2014  18:33:00     -112.335        9.438      -13.196       60.915       43.679       27.386     3710.648     1907.874      749.968        0.962        0.318      112.731       31.425        0.078      340.588       14.712      859.282
02/24/2014  18:34:00     -178.215      -68.818      -22.106       54.558       48.459       33.056     2976.577     2348.256     1092.700        2.170        0.321      191.041       27.942        0.021      340.454       14.483      859.290
02/24/2014  18:35:00     -197.897      -63.811      -18.692       57.126       50.333       39.623     3263.430     2533.397     1569.955        2.547        0.368      207.931       31.658        0.023      340.382       14.363      859.310
02/24/2014  18:36:00     -205.429      -33.781      -37.747       56.638       96.066       42.822     3207.849     9228.592     1833.742        2.952        0.714      208.188       21.811        0.011      340.413       14.412      859.313
02/24/2014  18:37:00     -201.066       54.988      -44.576       82.268       67.083       37.577     6768.009     4500.073     1412.013        2.906        0.634      208.450       22.513        0.012      340.444       14.465      859.333
02/24/2014  18:38:00     -184.995      -38.962      -26.867       87.770       70.819       50.007     7703.660     5015.308     2500.693        2.584        0.761      189.054       20.015        0.011      340.341       14.292      859.328
02/24/2014  18:39:00     -217.499      -83.796      -23.375       97.857       62.627       43.777     9576.040     3922.113     1916.384        3.514        0.771      233.083       35.624        0.023      340.253       14.143      859.339
02/24/2014  18:40:00     -238.354     -109.110      -23.750       62.224       56.708       34.003     3871.855     3215.793     1156.214        3.876        0.412      262.141       12.311        0.002      340.222       14.089      859.382
02/24/2014  18:41:00     -202.249      -49.463      -13.916       77.967       78.484       48.749     6078.922     6159.756     2376.417        2.908        0.731      208.209       43.904        0.044      340.323       14.261      859.396
02/24/2014  18:42:00     -101.789       12.007      -11.620      101.111       68.540       38.985    10223.358     4697.712     1519.832        1.354        0.822      102.494       23.421        0.052      340.351       14.310      859.420
02/24/2014  18:43:00     -118.928       34.686      -13.371       73.626       79.526       41.403     5420.715     6324.384     1714.194        1.449        0.673      123.883       36.760        0.088      340.437       14.457      859.449
02/24/2014  18:44:00     -124.989       44.436      -17.971       89.942       80.187       46.503     8089.504     6430.033     2162.553        1.730        0.834      132.653       50.942        0.147      340.541       14.630      859.472
02/24/2014  18:45:00     -155.082       72.652      -25.349       58.826       68.499       39.910     3460.507     4692.178     1592.810        1.986        0.487      171.257       28.090        0.027      340.483       14.531      859.490
02/24/2014  18:46:00     -145.940       60.883      -20.558       43.763       54.384       38.541     1915.187     2957.602     1485.443        1.589        0.318      158.130       29.420        0.035      340.421       14.428      859.523
02/24/2014  18:47:00     -164.764       82.628      -34.766       64.672       91.335       37.430     4182.464     8342.110     1400.989        2.455        0.696      184.322       39.217        0.045      340.463       14.499      859.540
02/24/2014  18:48:00      -42.833       65.355        1.337       41.647       71.426       39.417     1734.513     5101.615     1553.714        0.725        0.419       78.141       28.253        0.131      340.433       14.451      859.544
02/24/2014  18:49:00     -115.282       84.495      -29.506       47.863       45.315       30.163     2290.882     2053.453      909.778        1.328        0.263      142.931       17.052        0.014      340.455       14.488      859.568
02/24/2014  18:50:00     -109.460       48.326      -32.134       28.366       37.626       20.720      804.658     1415.694      429.311        0.900        0.132      119.653       14.870        0.015      340.477       14.524      859.569
02/24/2014  18:51:00     -108.766      -25.689      -11.922       60.288       51.685       34.486     3634.693     2671.297     1189.316        1.006        0.375      111.758       20.948        0.035      340.367       14.338      859.591
02/24/2014  18:52:00     -176.225      -65.543      -12.156       86.211       65.636       40.330     7432.394     4308.027     1626.501        2.443        0.668      188.019       33.849        0.032      340.309       14.238      859.599
02/24/2014  18:53:00     -223.674       92.497      -30.509      141.595      106.336       58.426    20049.051    11307.370     3413.594        4.714        1.739      242.045       62.088        0.066      340.476       14.519      859.615
02/24/2014  18:54:00     -189.805       96.665      -30.125       98.746      120.726       58.229     9750.817    14574.808     3390.593        3.699        1.386      213.003       44.624        0.044      340.593       14.719      859.627
02/24/2014  18:55:00     -217.068      231.281      -48.560       93.948       75.914       52.334     8826.170     5763.000     2738.835        6.014        0.866      317.190       56.245        0.031      340.684       14.870      859.622
02/24/2014  18:56:00     -189.431      273.754      -33.558       82.610       82.263       58.234     6824.342     6767.162     3391.218        6.446        0.849      332.905       53.187        0.026      340.593       14.718      859.623
02/24/2014  18:57:00     -157.724       81.523      -20.866       86.764      107.455       48.397     7528.062    11546.478     2342.278        2.668        1.071      177.547       57.344        0.104      340.684       14.874      859.626
02/24/2014  18:58:00     -134.683      194.349      -34.217       69.338       67.455       40.697     4807.807     4550.168     1656.226        3.405        0.551      236.455       45.055        0.036      340.676       14.857      859.613
02/24/2014  18:59:00     -173.801      302.447      -43.990       66.034       75.966       48.339     4360.521     5770.803     2336.691        6.804        0.623      348.828       47.482        0.019      340.832       15.122      859.616
02/24/2014  19:00:00      -74.676      196.053      -29.445       45.380       56.704       27.897     2059.327     3215.304      778.218        2.547        0.303      209.794       23.665        0.013      340.644       14.803      859.602
02/24/2014  19:01:00     -162.664      239.341      -47.505       77.465       86.311       52.207     6000.804     7449.564     2725.592        5.109        0.809      289.385       48.445        0.028      340.664       14.838      859.607
02/24/2014  19:02:00     -151.586      155.092      -31.671       52.939       55.173       47.514     2802.533     3044.084     2257.615        2.807        0.405      216.868       31.857        0.022      340.635       14.789      859.624
02/24/2014  19:03:00     -106.556      142.153      -15.669       46.469       48.437       33.352     2159.340     2346.191     1112.365        1.871        0.281      177.656       25.614        0.021      340.602       14.735      859.629
02/24/2014  19:04:00     -122.919       95.537       -9.142       54.048       68.395       33.618     2921.180     4677.836     1130.170        1.652        0.436      155.680       22.451        0.021      340.627       14.777      859.647
02/24/2014  19:05:00     -153.537       79.465      -23.618       61.837       65.420       35.533     3823.863     4279.760     1262.563        1.990        0.468      172.882       28.697        0.028      340.609       14.745      859.658
02/24/2014  19:06:00     -116.505       25.936      -12.880       41.747       46.051       30.866     1742.843     2120.662      952.687        0.961        0.241      119.357       21.270        0.032      340.569       14.681      859.663
02/24/2014  19:07:00     -149.335      -37.499      -15.033       58.670       53.522       35.494     3442.217     2864.607     1259.801        1.575        0.378      153.971       24.626        0.026      340.501       14.565      859.675
02/24/2014  19:08:00      -74.444        1.553      -14.494       72.783       45.234       41.098     5297.427     2046.080     1689.043        0.739        0.452       74.460       46.765        0.394      340.510       14.579      859.675
02/24/2014  19:09:00      -58.005      101.234      -15.881       38.682       66.059       32.156     1496.287     4363.849     1034.025        1.038        0.345      116.675       36.308        0.097      340.525       14.605      859.670
02/24/2014  19:10:00      -99.832      125.160      -19.077       41.592       50.210       37.946     1729.919     2521.059     1439.880        1.584        0.285      160.098       25.386        0.025      340.604       14.739      859.666
02/24/2014  19:11:00      -77.082      103.076      -10.221       36.958       49.490       29.342     1365.877     2449.298      860.979        1.067        0.234      128.710       29.051        0.051      340.601       14.734      859.663
02/24/2014  19:12:00     -104.790      141.209      -24.272       60.076       53.367       30.967     3609.140     2848.084      958.933        1.946        0.371      175.844       28.609        0.026      340.662       14.835      859.655
02/24/2014  19:13:00      -70.922       65.338      -12.364       38.066       40.580       25.221     1449.057     1646.701      636.086        0.659        0.187       96.432       19.240        0.040      340.671       14.853      859.665
02/24/2014  19:14:00      -82.156       78.718      -18.734       47.472       60.759       29.541     2253.602     3691.693      872.678        1.006        0.341      113.781       22.001        0.037      340.719       14.933      859.674
02/24/2014  19:15:00      -93.917      -15.627      -12.638       33.850       22.974       17.996     1145.843      527.797      323.861        0.561        0.100       95.209       13.806        0.021      340.674       14.857      859.691
02/24/2014  19:16:00     -113.975       70.797      -26.780       47.751       71.513       27.854     2280.127     5114.039      775.860        1.344        0.409      134.174       31.881        0.056      340.705       14.909      859.707
02/24/2014  19:17:00      -86.295      107.312      -21.827       38.140       48.133       23.321     1454.666     2316.819      543.874        1.188        0.216      137.705       24.227        0.031      340.863       15.177      859.700
02/24/2014  19:18:00      -91.728      -22.573       -5.687       30.977       37.310       19.663      959.570     1392.070      386.633        0.585        0.137       94.465       17.535        0.034      340.676       14.861      859.703
02/24/2014  19:19:00      -78.888        4.166       -4.400       44.588       43.184       27.032     1988.110     1864.853      730.755        0.542        0.229       78.998       28.223        0.128      340.568       14.678      859.716
02/24/2014  19:20:00     -214.863      -25.458      -15.670       64.870       57.624       34.325     4208.180     3320.552     1178.214        2.788        0.435      216.366       27.080        0.016      340.345       14.298      859.751
02/24/2014  19:21:00     -212.463      -23.534      -28.057       73.405       92.015       49.734     5388.313     8466.709     2473.448        3.140        0.816      213.762       36.775        0.030      340.022       13.753      859.752
02/24/2014  19:22:00     -145.969      129.752      -18.637       61.697       68.652       39.625     3806.565     4713.088     1570.163        2.429        0.504      195.301       30.655        0.025      339.948       13.629      859.751
02/24/2014  19:23:00     -170.881      183.930      -40.836       63.567       68.242       45.021     4040.760     4656.968     2026.871        3.771        0.536      251.059       38.906        0.024      340.112       13.902      859.743
02/24/2014  19:24:00     -150.662      185.077      -31.312       55.266       63.891       42.966     3054.289     4082.002     1846.092        3.346        0.449      238.647       40.335        0.029      340.014       13.738      859.739
02/24/2014  19:25:00     -136.901      168.075      -27.779       50.599       80.893       44.558     2560.290     6543.660     1985.390        2.942        0.554      216.774       45.727        0.044      340.199       14.053      859.743
02/24/2014  19:26:00     -152.433       48.526      -27.189       72.289       66.171       23.899     5225.651     4378.613      571.181        1.825        0.509      159.970       19.726        0.015      340.189       14.037      859.740
02/24/2014  19:27:00      -70.292       14.109        6.020       58.785       44.664       34.478     3455.704     1994.876     1188.738        0.591        0.332       71.694       24.709        0.119      339.996       13.712      859.770
02/24/2014  19:28:00      -62.683        8.349       -5.812       53.041       50.369       22.293     2813.385     2537.047      496.992        0.494        0.292       63.237       25.905        0.168      340.038       13.783      859.758
02/24/2014  19:29:00     -132.613      113.773      -30.247       48.768       50.872       35.571     2378.298     2587.914     1265.271        1.884        0.312      174.730       32.802        0.035      340.214       14.078      859.782
02/24/2014  19:30:00     -112.278       95.326      -22.426       50.467       40.465       28.943     2546.869     1637.453      837.674        1.361        0.251      147.286       25.940        0.031      340.115       13.913      859.773
02/24/2014  19:31:00      -83.541       63.365      -14.454       55.105       75.984       35.763     3036.565     5773.553     1278.988        1.064        0.504      104.853       27.554        0.069      340.130       13.938      859.784
02/24/2014  19:32:00      -83.355      108.977      -16.830       39.833       57.100       27.851     1586.706     3260.435      775.680        1.236        0.281      137.201       22.900        0.028      340.221       14.092      859.769
02/24/2014  19:33:00     -161.530      -51.687       -6.875       61.506       59.330       27.188     3783.039     3520.090      739.177        1.842        0.402      169.598       23.675        0.019      340.060       13.818      859.763
02/24/2014  19:34:00      -95.663       24.237       -7.372       88.285       50.304       35.686     7794.239     2530.481     1273.476        1.069        0.580       98.686       37.576        0.145      340.117       13.916      859.771
02/24/2014  19:35:00     -130.685      -17.808      -16.237       64.821       57.450       34.215     4201.758     3300.465     1170.683        1.316        0.434      131.893       35.148        0.071      339.951       13.636      859.779
02/24/2014  19:36:00     -172.292       47.507      -24.657       66.287       66.917       36.654     4394.007     4477.839     1343.523        2.138        0.511      178.722       32.206        0.032      339.835       13.439      859.750
02/24/2014  19:37:00     -210.679       -9.289      -30.484       52.985       61.096       29.912     2807.387     3732.754      894.718        2.642        0.372      210.884       24.389        0.013      339.696       13.203      859.749
02/24/2014  19:38:00     -143.074      -32.512      -18.252       69.716       70.120       34.595     4860.382     4916.773     1196.845        1.641        0.549      146.721       29.437        0.040      339.771       13.332      859.732
02/24/2014  19:39:00      -73.940       -8.663       -8.299       51.387       61.774       36.064     2640.633     3816.060     1300.628        0.668        0.388       74.446       33.786        0.206      339.796       13.375      859.730
02/24/2014  19:40:00      -70.696      -10.350       -2.736       52.779       44.841       28.626     2785.583     2010.749      819.443        0.536        0.281       71.449       29.988        0.176      339.784       13.355      859.735
02/24/2014  19:41:00      -56.947      -41.006        6.558       59.991       24.235       23.458     3598.938      587.317      550.287        0.485        0.237       70.174       26.984        0.148      339.758       13.311      859.728
02/24/2014  19:42:00     -161.833      -73.834      -24.390       31.570       28.269       15.953      996.658      799.121      254.511        1.714        0.103      177.880        5.113        0.001      339.657       13.141      859.734
02/24/2014  19:43:00     -164.256      -43.253      -14.611       54.859       44.283       30.931     3009.543     1960.987      956.698        1.749        0.296      169.856       16.628        0.010      339.704       13.219      859.766
02/24/2014  19:44:00     -141.629      -11.252      -13.856       69.923       46.051       37.992     4889.173     2120.721     1443.390        1.441        0.423      142.075       37.670        0.070      339.814       13.406      859.786
02/24/2014  19:45:00      -50.050      -11.098        1.344       58.021       33.166       30.700     3366.396     1099.992      942.498        0.402        0.270       51.265       34.469        0.452      339.713       13.237      859.786
02/24/2014  19:46:00      -69.525       14.097      -11.173       43.279       31.798       27.511     1873.106     1011.120      756.853        0.440        0.182       70.940       22.889        0.104      339.781       13.349      859.801
02/24/2014  19:47:00      -80.932       16.135      -19.841       27.912       46.305       19.612      779.106     2144.146      384.612        0.526        0.165       82.525       12.295        0.022      339.886       13.528      859.824
02/24/2014  19:48:00     -123.871       14.624      -16.686       63.909       70.325       26.443     4084.410     4945.573      699.256        1.278        0.486      124.731       35.237        0.080      340.028       13.766      859.824
02/24/2014  19:49:00      -81.935       45.562      -13.640       32.752       34.647       29.412     1072.662     1200.443      865.072        0.606        0.157       93.751        7.429        0.006      340.166       14.000      859.835
02/24/2014  19:50:00      -67.943       -5.998        6.013       41.971       47.359       25.709     1761.530     2242.905      660.955        0.468        0.233       68.207       23.433        0.118      340.010       13.736      859.858
02/24/2014  19:51:00     -112.275      -23.150      -10.081       23.629       42.669       18.978      558.353     1820.605      360.171        0.799        0.137      114.637        8.586        0.006      339.796       13.376      859.876
02/24/2014  19:52:00     -100.185        4.687       -8.373       50.165       41.557       31.019     2516.491     1726.958      962.174        0.767        0.260      100.294       22.957        0.052      339.928       13.598      859.875
02/24/2014  19:53:00     -147.273      -19.515      -19.257       39.933       52.500       31.165     1594.612     2756.233      971.267        1.388        0.266      148.561       20.000        0.018      339.865       13.491      859.888
02/24/2014  19:54:00     -198.759      -56.519      -16.117       54.819       62.490       32.818     3005.137     3904.944     1077.023        2.547        0.399      206.639       23.834        0.013      339.921       13.583      859.905
02/24/2014  19:55:00     -208.641      -11.743      -25.513       64.149       52.068       38.925     4115.106     2711.041     1515.179        2.633        0.417      208.971       28.190        0.018      339.991       13.700      859.903
02/24/2014  19:56:00     -132.688       47.189      -20.994       55.281       96.795       46.780     3055.972     9369.242     2188.337        1.744        0.731      140.830       47.450        0.114      340.234       14.112      859.888
02/24/2014  19:57:00      -94.281       -7.383       -3.520       55.776       55.596       36.460     3110.995     3090.884     1329.327        0.824        0.377       94.570       39.604        0.175      340.215       14.082      859.874
02/24/2014  19:58:00      -92.133        8.195       -8.530       42.151       48.374       25.970     1776.725     2340.024      674.441        0.671        0.240       92.497       12.296        0.018      340.185       14.031      859.884
02/24/2014  19:59:00      -34.672       39.595        2.103       37.836       42.746       31.755     1431.597     1827.208     1008.360        0.352        0.213       52.630       30.885        0.344      340.114       13.910      859.897
02/24/2014  20:00:00     -122.435      -36.544      -13.474       84.367       49.741       31.351     7117.710     2474.197      982.857        1.354        0.529      127.772       40.634        0.101      340.201       14.056      859.890
02/24/2014  20:01:00      -74.021       20.106       -4.904       48.011       39.073       25.201     2305.044     1526.734      635.077        0.519        0.223       76.703       20.255        0.070      340.195       14.048      859.891
02/24/2014  20:02:00     -132.519      -17.303      -17.457       59.811       56.273       27.015     3577.299     3166.662      729.802        1.282        0.374      133.644       31.131        0.054      340.309       14.241      859.898
02/24/2014  20:03:00      -21.245      -23.963        7.360       56.304       44.287       32.352     3170.145     1961.324     1046.651        0.363        0.309       32.025       33.782        1.113      340.257       14.152      859.891
02/24/2014  20:04:00     -114.608      -57.891       -8.526       50.025       30.096       24.932     2502.464      905.780      621.589        1.029        0.201      128.399       27.628        0.046      340.185       14.031      859.894
02/24/2014  20:05:00     -168.890      -51.020       -2.100       50.362       82.861       27.424     2536.358     6865.865      752.102        2.064        0.508      176.428       20.030        0.013      340.278       14.186      859.904
02/24/2014  20:06:00     -190.990       -1.511       -2.707       84.757       69.035       49.973     7183.743     4765.838     2497.285        2.546        0.722      190.996       50.144        0.069      340.389       14.375      859.917
02/24/2014  20:07:00     -160.787      -27.848      -12.863       60.459       40.264       30.720     3655.296     1621.181      943.724        1.651        0.311      163.180       23.847        0.021      340.322       14.261      859.911
02/24/2014  20:08:00      -37.993       25.300      -19.846       21.361       35.319       20.624      456.287     1247.425      425.355        0.230        0.106       45.646       13.623        0.089      340.300       14.224      859.927
02/24/2014  20:09:00      -32.623       76.621      -14.895       35.543       26.824       21.443     1263.292      719.538      459.822        0.480        0.122       83.277       12.861        0.024      340.317       14.253      859.930
02/24/2014  20:10:00       -6.508       89.177      -17.990       36.231       20.862       15.928     1312.720      435.213      253.700        0.516        0.100       89.414       10.386        0.013      340.123       13.926      859.934
02/24/2014  20:11:00      -32.861      104.064      -28.316       31.958       23.951       17.797     1021.304      573.643      316.720        0.731        0.096      109.129       18.211        0.028      340.141       13.956      859.944
02/24/2014  20:12:00      -32.694      107.660      -18.115       39.735       33.954       20.473     1578.839     1152.860      419.126        0.807        0.158      112.515       12.311        0.012      340.054       13.810      859.940
02/24/2014  20:13:00      -15.745      164.516      -29.784       39.036       34.498       12.674     1523.845     1190.140      160.633        1.554        0.144      165.267        9.688        0.003      339.992       13.705      859.932
02/24/2014  20:14:00       22.811      101.962      -23.941       35.135       59.592       21.555     1234.448     3551.166      464.610        0.837        0.263      104.482       23.279        0.050      339.806       13.391      859.924
02/24/2014  20:15:00       19.331       56.985      -27.674       33.252       39.392       13.757     1105.664     1551.748      189.256        0.362        0.142       60.174       13.815        0.053      339.723       13.252      859.908
02/24/2014  20:16:00        2.785       42.940        0.948       20.731       22.270       15.857      429.795      495.974      251.453        0.151        0.059       43.030       14.648        0.116      339.808       13.396      859.894
02/24/2014  20:17:00      -44.644       35.087      -10.062       30.722       36.349       19.859      943.822     1321.243      394.370        0.299        0.133       56.782       19.350        0.116      339.928       13.599      859.901
02/24/2014  20:18:00      -33.358       54.353      -11.827       20.798       19.589       13.428      432.536      383.740      180.304        0.260        0.050       63.773       11.759        0.034      339.889       13.532      859.908
02/24/2014  20:19:00      -17.912       81.844      -17.309       21.929       24.065       13.977      480.901      579.107      195.362        0.429        0.063       83.781        9.336        0.012      340.071       13.838      859.896
02/24/2014  20:20:00      -83.479       59.305      -23.352       29.393       31.218       22.094      863.927      974.561      488.146        0.668        0.116      102.400       12.879        0.016      340.123       13.926      859.913
02/24/2014  20:21:00      -51.566       74.330      -24.953       45.269       22.417       18.718     2049.277      502.540      350.356        0.585        0.145       90.465       19.280        0.045      340.070       13.835      859.909
02/24/2014  20:22:00      -28.599       65.013      -13.961       25.481       21.615       15.731      649.270      467.205      247.466        0.330        0.068       71.026       15.360        0.047      340.150       13.973      859.911
02/24/2014  20:23:00      -67.234       44.610       -8.368       42.651       52.337       19.424     1819.078     2739.157      377.297        0.576        0.247       80.688       16.222        0.040      340.135       13.947      859.929
02/24/2014  20:24:00      -59.311       49.890       -1.675       39.795       70.004       31.340     1583.667     4900.557      982.222        0.674        0.373       77.504       33.478        0.187      339.994       13.710      859.938
02/24/2014  20:25:00      -99.485      120.611      -27.128       34.837       32.477       24.748     1213.588     1054.758      612.440        1.403        0.144      156.346       20.612        0.017      340.026       13.763      859.943
02/24/2014  20:26:00      -34.871      107.952      -19.723       33.125       22.742       15.629     1097.246      517.182      244.250        0.756        0.093      113.445       14.880        0.017      340.134       13.944      859.931
02/24/2014  20:27:00       -9.102      105.529      -24.607       18.380       24.284        7.624      337.843      589.701       58.129        0.640        0.049      105.921        7.578        0.005      340.100       13.888      859.921
02/24/2014  20:28:00      -47.040       93.243      -16.636       45.479       57.299       26.321     2068.344     3283.143      692.797        0.861        0.302      104.436       32.817        0.099      340.108       13.901      859.926
02/24/2014  20:29:00      -84.595       75.930      -11.490       43.416       53.464       23.526     1884.965     2858.420      553.492        0.917        0.265      113.674       26.320        0.054      340.106       13.898      859.954
02/24/2014  20:30:00      -39.688      149.286      -29.257       42.355       43.140       17.961     1793.954     1861.031      322.594        1.435        0.199      154.472       15.520        0.010      340.091       13.872      859.952
02/24/2014  20:31:00      -92.069       68.110       -9.895       40.242       55.340       29.802     1619.431     3062.568      888.188        0.939        0.279      114.524       25.559        0.050      340.206       14.067      859.968
02/24/2014  20:32:00      -87.984      130.545      -27.549       50.367       33.584       26.575     2536.843     1127.864      706.204        1.496        0.219      157.427       29.114        0.034      340.058       13.818      859.995
02/24/2014  20:33:00     -112.959       46.963      -10.144       41.637       62.381       27.048     1733.611     3891.330      731.618        1.071        0.318      122.333       17.444        0.020      339.952       13.638      860.002
02/24/2014  20:34:00      -47.971      -42.418      -13.388       62.774       35.565       27.223     3940.630     1264.875      741.074        0.511        0.297       64.036       31.675        0.245      339.759       13.313      860.012
02/24/2014  20:35:00        7.156        1.214       14.582       13.673       15.598       11.231      186.938      243.297      126.144        0.041        0.028        7.258        5.480        0.570      339.540       12.942      860.004
02/24/2014  20:36:00      -25.868       12.374       -5.053       36.590       37.714       17.454     1338.842     1422.350      304.647        0.196        0.153       28.675       20.953        0.534      339.726       13.257      860.022
02/24/2014  20:37:00      -53.904       95.571      -19.832       46.000       52.332       25.846     2116.013     2738.674      667.991        0.898        0.276      109.725       22.035        0.040      339.877       13.511      860.040
02/24/2014  20:38:00      -51.610      123.679      -26.285       38.939       49.872       25.179     1516.227     2487.194      633.994        1.164        0.232      134.016       23.678        0.031      339.874       13.507      860.049
02/24/2014  20:39:00      -33.935      124.229      -17.119       22.390       70.281       29.871      501.296     4939.366      892.273        1.160        0.317      128.781       36.425        0.080      339.989       13.700      860.050
02/24/2014  20:40:00      -69.845      -32.621       -5.589       40.150       33.998       18.576     1612.012     1155.897      345.080        0.454        0.156       77.087       19.831        0.066      339.806       13.391      860.072
02/24/2014  20:41:00      -15.637      -15.241        6.804       33.754       23.805       16.353     1139.335      566.689      267.433        0.125        0.099       21.836       14.373        0.433      339.600       13.044      860.080
02/24/2014  20:42:00      -75.462      -25.253      -10.129       30.073       21.974       13.350      904.377      482.876      178.226        0.400        0.078       79.575       12.670        0.025      339.665       13.154      860.093
02/24/2014  20:43:00      -99.243       10.879       -8.643       50.748       30.245       18.915     2575.406      914.738      357.770        0.694        0.192       99.838       23.521        0.056      339.736       13.274      860.110
02/24/2014  20:44:00      -89.894      -30.294       -8.664       23.016       30.778       16.506      529.742      947.312      272.455        0.541        0.087       94.861       11.266        0.014      339.750       13.298      860.143
02/24/2014  20:45:00      -51.836      -40.128      -10.100       35.140       21.187       15.725     1234.820      448.906      247.286        0.316        0.097       65.553        7.491        0.013      339.650       13.129      860.160
02/24/2014  20:46:00      -68.276      -30.402       -4.932       47.736       18.948       14.879     2278.755      359.020      221.390        0.423        0.143       74.739        8.199        0.012      339.740       13.282      860.164
02/24/2014  20:47:00      -39.963      -37.033        4.307       54.433       29.189       25.530     2962.914      851.979      651.787        0.373        0.223       54.484       27.652        0.258      339.696       13.207      860.174
02/24/2014  20:48:00      -28.223      -65.842       11.727       59.989       51.902       30.501     3598.626     2693.853      930.307        0.624        0.361       71.636       26.100        0.133      339.645       13.121      860.177
02/24/2014  20:49:00     -114.114      -97.082        5.656       51.811       52.985       31.730     2684.348     2807.458     1006.780        1.449        0.325      149.823       29.118        0.038      339.677       13.173      860.182
02/24/2014  20:50:00     -143.028      -75.066       -0.567       64.843       48.317       38.422     4204.644     2334.559     1476.224        1.705        0.401      161.530       36.186        0.050      339.604       13.050      860.195
02/24/2014  20:51:00     -116.880      -69.545      -10.170       51.577       45.096       29.379     2660.146     2033.631      863.097        1.208        0.278      136.005       30.169        0.049      339.687       13.193      860.214
02/24/2014  20:52:00      -86.400      -38.359        6.507       62.654       37.887       23.522     3925.581     1435.422      553.296        0.745        0.296       94.532       28.990        0.094      339.682       13.183      860.222
02/24/2014  20:53:00     -107.388      -21.392      -13.273       33.736       23.616       17.518     1138.120      557.716      306.881        0.708        0.100      109.498       12.969        0.014      339.722       13.251      860.209
02/24/2014  20:54:00     -146.827      -17.673       -6.402       73.849       42.433       26.787     5453.748     1800.594      717.547        1.494        0.399      147.886       37.808        0.065      339.762       13.317      860.212
02/24/2014  20:55:00     -180.128       -3.463      -21.687       38.982       32.953       22.991     1519.588     1085.887      528.583        1.803        0.157      180.162       21.722        0.015      339.690       13.197      860.217
02/24/2014  20:56:00     -136.427      -21.218      -20.205       43.779       50.056       25.179     1916.580     2505.565      634.001        1.226        0.253      138.067       23.406        0.029      339.527       12.921      860.224
02/24/2014  20:57:00     -149.645      -41.482      -10.341       34.200       66.061       30.086     1169.662     4364.103      905.181        1.533        0.322      155.288       21.345        0.019      339.470       12.824      860.234
02/24/2014  20:58:00     -103.462       -0.117      -10.090       42.807       40.302       21.356     1832.456     1624.280      456.065        0.736        0.196      103.463       19.849        0.037      339.381       12.675      860.244
02/24/2014  20:59:00     -137.668        5.603      -16.816       28.426       19.933       14.348      808.057      397.327      205.853        1.034        0.071      137.782        5.617        0.002      339.450       12.792      860.259
02/24/2014  21:00:00     -140.269        2.300      -16.629       43.870       43.227       26.151     1924.584     1868.543      683.870        1.222        0.224      140.288       21.719        0.024      339.458       12.806      860.264
02/24/2014  21:01:00     -134.588      -25.299      -13.514       35.118       24.182       19.427     1233.287      584.786      377.400        1.057        0.110      136.945       21.526        0.025      339.395       12.698      860.268
02/24/2014  21:02:00      -85.178      -21.785       -1.287       38.009       20.921       15.987     1444.712      437.703      255.589        0.493        0.107       87.920       16.790        0.036      339.293       12.526      860.276
02/24/2014  21:03:00      -63.012      -13.276       -6.040       42.659       25.835       12.995     1819.796      667.456      168.858        0.342        0.133       64.395       14.571        0.051      339.380       12.674      860.281
02/24/2014  21:04:00     -113.383      -20.990      -10.314       26.225       18.796       11.270      687.765      353.307      127.006        0.729        0.058      115.310        8.343        0.005      339.302       12.542      860.291
02/24/2014  21:05:00      -28.923      -29.967        0.117       28.777       11.455       12.203      828.140      131.212      148.925        0.142        0.055       41.648       12.733        0.093      339.358       12.638      860.296
02/24/2014  21:06:00      -11.594      -21.314       -0.776       21.580       11.455       11.323      465.678      131.212      128.200        0.066        0.036       24.263        8.004        0.109      339.409       12.723      860.295
02/24/2014  21:07:00       -7.357      -20.082       -3.144       13.530       17.901        9.662      183.063      320.445       93.364        0.053        0.030       21.387        7.829        0.134      339.462       12.810      860.275
02/24/2014  21:08:00      -70.508      -33.069       -5.413       50.336       22.695       10.891     2533.701      515.048      118.604        0.463        0.158       77.878        8.212        0.011      339.442       12.778      860.286
02/24/2014  21:09:00      -98.798      -61.368        3.841       78.417       36.366       23.967     6149.250     1322.474      574.438        1.079        0.402      116.306       25.963        0.050      339.017       12.062      860.305
02/24/2014  21:10:00      -57.319     -139.437       -2.054       44.164       38.498       25.275     1950.453     1482.060      638.818        1.340        0.204      150.759       25.645        0.029      339.172       12.323      860.308
02/24/2014  21:11:00      -23.896      -17.855       36.667       38.289       57.130       27.250     1466.032     3263.837      742.576        0.385        0.274       29.829       32.271        1.170      339.265       12.481      860.264
02/24/2014  21:12:00      -34.158        2.448       15.354       26.301       30.182       21.837      691.753      910.965      476.834        0.174        0.104       34.246       13.006        0.144      339.266       12.481      860.284
02/24/2014  21:13:00      -60.929       56.364      -13.333       31.098       24.041       13.406      967.110      577.984      179.714        0.440        0.086       83.002       11.541        0.019      339.405       12.716      860.306
02/24/2014  21:14:00     -103.117      -39.881       -6.529       31.756       43.480       18.222     1008.436     1890.532      332.051        0.775        0.162      110.560       18.551        0.028      339.159       12.299      860.325
02/24/2014  21:15:00      -60.714      -49.007        2.851       45.803       28.333       18.818     2097.912      802.751      354.120        0.467        0.163       78.025       19.467        0.062      339.116       12.229      860.327
02/24/2014  21:16:00       16.401      -54.655        2.187       17.511       37.779       21.581      306.647     1427.250      465.754        0.273        0.110       57.063       18.829        0.109      339.163       12.308      860.310
02/24/2014  21:17:00      -51.074        1.177        1.643       58.700       21.952       15.056     3445.650      481.906      226.681        0.338        0.208       51.087        8.371        0.027      339.123       12.241      860.311
02/24/2014  21:18:00     -144.868      -67.074       -2.229       44.569       27.529       22.398     1986.395      757.843      501.690        1.437        0.162      159.642       15.083        0.009      339.086       12.178      860.344
02/24/2014  21:19:00     -106.807      -15.232       -6.865       53.257       31.548       20.194     2836.343      995.253      407.804        0.796        0.212      107.888       22.431        0.043      338.832       11.751      860.371
02/24/2014  21:20:00      -21.516        1.453       -2.500       16.482       18.076       14.793      271.672      326.756      218.847        0.064        0.041       21.565       11.100        0.265      338.928       11.913      860.355
02/24/2014  21:21:00       33.699       31.843        5.584       26.104        8.921        9.251      681.421       79.587       85.580        0.151        0.042       46.364        2.941        0.004      338.945       11.942      860.346
02/24/2014  21:22:00       65.081       33.154        2.215       10.209       10.662       11.737      104.216      113.677      137.755        0.285        0.018       73.039        7.856        0.012      338.929       11.913      860.354
02/24/2014  21:23:00       16.971       15.617        9.751       20.324       13.852       15.642      413.076      191.890      244.668        0.074        0.042       23.063       15.859        0.473      338.924       11.905      860.376
02/24/2014  21:24:00      -72.144      -12.289      -10.477       41.829       28.655       22.263     1749.705      821.131      495.661        0.427        0.153       73.184       16.696        0.052      339.025       12.076      860.399
02/24/2014  21:25:00     -151.497      -67.414       -5.347       52.266       46.105       20.764     2731.770     2125.661      431.137        1.641        0.264      165.819       23.879        0.021      338.688       11.509      860.418
02/24/2014  21:26:00     -100.323       -3.376       -4.339       34.840       22.481       22.189     1213.851      505.397      492.352        0.615        0.111      100.380       18.449        0.034      338.712       11.551      860.422
02/24/2014  21:27:00      -48.375      -12.369        0.840       26.791       14.161       11.772      717.745      200.539      138.578        0.178        0.053       49.931        7.933        0.025      338.794       11.689      860.413
02/24/2014  21:28:00      -95.284      -22.021      -13.151       19.773       19.232       12.822      390.990      369.859      164.398        0.533        0.046       97.795       12.084        0.015      338.815       11.723      860.424
02/24/2014  21:29:00      -83.885       -5.407       -5.817       33.096       30.309       20.296     1095.362      918.654      411.922        0.476        0.121       84.059       17.916        0.045      338.791       11.683      860.446
02/24/2014  21:30:00      -58.472       41.660       -7.808       23.955       26.972       16.730      573.857      727.470      279.908        0.340        0.079       71.795       11.011        0.024      338.799       11.697      860.437
02/24/2014  21:31:00      -73.523       45.769       -3.059       23.344       34.476       16.405      544.961     1188.591      269.115        0.476        0.100       86.605        9.945        0.013      339.006       12.043      860.429
02/24/2014  21:32:00      -95.276      -15.929       -3.913       32.421       26.615       17.766     1051.098      708.370      315.622        0.571        0.104       96.598       14.240        0.022      338.795       11.688      860.435
02/24/2014  21:33:00      -59.735       26.677       -1.562       30.136       40.382       27.072      908.181     1630.723      732.911        0.378        0.164       65.421       20.183        0.095      338.734       11.586      860.429
02/24/2014  21:34:00      -30.415       28.120        1.888       17.631       30.020       16.836      310.857      901.201      283.448        0.161        0.075       41.422       14.674        0.125      339.172       12.322      860.425
02/24/2014  21:35:00      -22.423      -25.143        0.607       25.402       22.114       16.494      645.260      489.011      272.037        0.127        0.070       33.689       15.031        0.199      338.714       11.552      860.435
02/24/2014  21:36:00        2.583      -25.835       14.075       26.101       19.314       18.409      681.286      373.048      338.885        0.113        0.070       25.963       16.644        0.411      338.566       11.304      860.439
02/24/2014  21:37:00      -74.904      -43.827       -1.964       18.984       12.671        8.067      360.390      160.560       65.083        0.406        0.029       86.784        3.567        0.002      338.536       11.254      860.432
02/24/2014  21:38:00      -53.540      -35.747       -4.132       20.931       15.680       10.729      438.089      245.868      115.106        0.248        0.040       64.377        9.965        0.024      338.602       11.364      860.427
02/24/2014  21:39:00      -76.475      -20.213       -6.849       24.614       15.444       12.453      605.869      238.530      155.070        0.365        0.050       79.101       14.149        0.032      338.764       11.637      860.433
02/24/2014  21:40:00      -85.296      -34.072        2.601       30.023       27.485       19.220      901.398      755.403      369.398        0.523        0.101       91.850       17.222        0.035      338.595       11.353      860.442
02/24/2014  21:41:00      -59.447      -39.753        8.392       36.671       23.457       22.105     1344.732      550.220      488.628        0.378        0.119       71.514       21.095        0.087      338.484       11.165      860.449
02/24/2014  21:42:00      -60.106       -7.919       -2.754       41.194       23.498       18.804     1696.946      552.138      353.589        0.314        0.130       60.625       22.714        0.140      338.503       11.199      860.448
02/24/2014  21:43:00      -84.935      -30.689       -3.995       17.692       24.646       15.162      313.007      607.437      229.882        0.466        0.058       90.309        9.938        0.012      338.359       10.958      860.455
02/24/2014  21:44:00      -91.403      -43.146       -8.719       25.489       16.352       11.144      649.706      267.395      124.197        0.567        0.052      101.075        6.359        0.004      338.291       10.844      860.473
02/24/2014  21:45:00      -68.481      -48.642       -5.625       34.372       23.449       22.913     1181.419      549.847      525.019        0.467        0.113       83.998       18.487        0.048      338.181       10.659      860.482
02/24/2014  21:46:00     -115.785      -33.833      -14.053       27.630       22.328       17.342      763.391      498.549      300.757        0.816        0.078      120.627       16.982        0.020      338.205       10.699      860.489
02/24/2014  21:47:00     -130.363      -11.055      -13.239       62.463       42.012       29.083     3901.612     1765.023      845.813        1.190        0.326      130.831       31.586        0.058      338.076       10.481      860.500
02/24/2014  21:48:00      -72.731      -12.477        1.435       71.916       36.434       31.842     5171.973     1327.456     1013.937        0.648        0.376       73.793       38.628        0.274      338.133       10.578      860.498
02/24/2014  21:49:00      -40.401      -26.703        3.913       37.457       32.702       20.258     1403.036     1069.441      410.399        0.262        0.144       48.428       22.164        0.209      338.187       10.668      860.507
02/24/2014  21:50:00      -47.438      -31.048        3.983       35.877       23.520       14.579     1287.183      553.209      212.535        0.264        0.103       56.695       15.754        0.077      338.166       10.631      860.517
02/24/2014  21:51:00      -42.183      -32.092       -5.891       34.876       28.629       15.866     1216.325      819.623      251.739        0.257        0.114       53.003        7.932        0.022      338.004       10.361      860.521
02/24/2014  21:52:00      -49.654      -29.707      -14.066       28.162       28.446       20.116      793.097      809.163      404.669        0.278        0.100       57.862        8.828        0.023      337.937       10.248      860.507
02/24/2014  21:53:00      -60.151       -6.303       -3.761       25.179       24.010       17.040      633.980      576.468      290.363        0.259        0.075       60.481       13.696        0.051      337.935       10.245      860.507
02/24/2014  21:54:00      -30.690      -21.237        2.809       35.334       18.522       19.110     1248.508      343.060      365.198        0.168        0.098       37.322       20.393        0.299      337.930       10.237      860.512
02/24/2014  21:55:00      -67.820      -37.760       -4.321       33.662       13.797       15.726     1133.104      190.370      247.303        0.381        0.079       77.623       18.828        0.059      337.818       10.048      860.514
02/24/2014  21:56:00      -25.035      -30.032        4.873       28.932       30.186       24.271      837.036      911.169      589.069        0.194        0.117       39.098       25.596        0.429      337.809       10.033      860.515
02/24/2014  21:57:00      -68.677      -44.332       -3.922       35.482       19.597       17.072     1258.996      384.035      291.460        0.432        0.097       81.742       20.737        0.064      337.731        9.904      860.512
02/24/2014  21:58:00      -98.656      -59.105      -16.723       29.939       23.462       16.106      896.357      550.473      259.418        0.761        0.085      115.007       10.779        0.009      337.737        9.913      860.512
02/24/2014  21:59:00     -123.700      -45.798       -9.752       24.911       20.955       16.667      620.536      439.101      277.780        0.942        0.067      131.905       13.540        0.011      337.659        9.783      860.527
02/24/2014  22:00:00      -91.614      -22.518       -1.522       28.196       24.645       15.955      795.029      607.397      254.571        0.528        0.083       94.340       15.225        0.026      337.749        9.933      860.531
02/24/2014  22:01:00      -80.040      -19.825       -6.439       20.639       15.742       16.445      425.985      247.818      270.450        0.389        0.047       82.458       15.191        0.034      337.849       10.102      860.528
02/24/2014  22:02:00     -108.366      -54.530       -5.831       25.620       26.789       17.909      656.382      717.649      320.741        0.822        0.085      121.313       10.632        0.008      337.852       10.106      860.546
02/24/2014  22:03:00     -122.438      -54.398       -7.236       40.188       28.096       18.475     1615.093      789.371      341.333        1.037        0.137      133.979       17.351        0.017      337.705        9.862      860.551
02/24/2014  22:04:00      -91.940      -40.293       -1.501       26.036       24.620       15.489      677.864      606.145      239.920        0.580        0.076      100.382       14.523        0.021      337.743        9.924      860.548
02/24/2014  22:05:00     -101.541      -54.393        4.224       33.210       30.170       18.824     1102.932      910.258      354.354        0.783        0.118      115.192       16.532        0.021      337.906       10.196      860.550
02/24/2014  22:06:00     -111.884      -43.846       -5.202       15.724       16.686       10.663      247.243      278.431      113.708        0.755        0.032      120.168        6.003        0.002      337.850       10.103      860.562
02/24/2014  22:07:00     -101.530      -39.857       -3.881       25.883       19.096       14.932      669.946      364.663      222.958        0.658        0.063      109.073       14.975        0.019      337.783        9.988      860.564
02/24/2014  22:08:00     -114.968      -50.154       -1.974       21.820       19.834       14.987      476.098      393.385      224.611        0.842        0.055      125.431       12.075        0.009      337.788        9.998      860.566
02/24/2014  22:09:00     -139.449      -31.085       -7.998       16.121       18.231       13.095      259.875      332.365      171.469        1.062        0.038      142.872        7.860        0.003      337.662        9.789      860.573
02/24/2014  22:10:00     -128.518       -2.867      -10.947       23.119       22.253       19.419      534.500      495.199      377.117        0.903        0.070      128.550       11.925        0.009      337.535        9.574      860.569
02/24/2014  22:11:00     -120.473      -39.969      -11.021       15.575       15.839       12.589      242.592      250.872      158.493        0.844        0.033      126.930       10.388        0.007      337.802       10.023      860.566
02/24/2014  22:12:00     -129.116      -26.652       -7.648       27.786       27.621       18.798      772.053      762.933      353.355        0.966        0.094      131.838       13.553        0.011      337.774        9.975      860.576
02/24/2014  22:13:00     -140.447      -54.080      -17.011       23.012       24.323       22.568      529.563      591.587      509.326        1.228        0.082      150.499       18.253        0.015      337.584        9.657      860.580
02/24/2014  22:14:00      -61.033      -36.927       -0.639       32.668       17.079       16.322     1067.181      291.702      266.410        0.336        0.081       71.335       19.313        0.073      337.647        9.762      860.579
02/24/2014  22:15:00     -118.498      -53.244      -14.293       28.799       22.864       14.009      829.391      522.754      196.257        0.931        0.077      129.911       14.387        0.012      337.546        9.593      860.582
02/24/2014  22:16:00     -102.734      -63.992      -11.429       44.276       25.388       26.506     1960.400      644.537      702.590        0.904        0.165      121.034       21.761        0.032      337.460        9.450      860.592
02/24/2014  22:17:00      -92.725      -56.942      -10.957       26.979       25.178       15.160      727.876      633.919      229.828        0.678        0.080      108.813       12.062        0.012      337.404        9.354      860.594
02/24/2014  22:18:00      -88.801      -50.117      -17.290       34.028       17.845       18.968     1157.922      318.455      359.789        0.627        0.092      101.967       18.802        0.034      337.313        9.203      860.583
02/24/2014  22:19:00      -96.000      -51.964       -5.492       40.575       17.704       20.344     1646.351      313.448      413.882        0.716        0.119      109.162       20.574        0.036      337.318        9.212      860.586
02/24/2014  22:20:00      -22.129      -23.594        6.625       41.442       21.089       18.999     1717.479      444.749      360.965        0.181        0.126       32.348       13.412        0.172      337.339        9.246      860.571
02/24/2014  22:21:00      -55.472      -29.539        0.539       42.016       25.352       25.821     1765.339      642.702      666.727        0.351        0.154       62.846       27.724        0.195      337.290        9.164      860.559
02/24/2014  22:22:00     -121.972      -27.019       -7.607       37.189       29.404       18.963     1383.055      864.587      359.606        0.914        0.130      124.929       18.041        0.021      337.213        9.034      860.571
02/24/2014  22:23:00      -43.080      -28.229        0.665       29.050       30.527       15.871      843.922      931.912      251.873        0.234        0.101       51.505       11.790        0.052      337.231        9.066      860.559
02/24/2014  22:24:00     -111.488       10.167      -16.117       36.488       30.126       24.123     1331.385      907.558      581.923        0.781        0.141      111.951       14.653        0.017      337.318        9.211      860.553
02/24/2014  22:25:00      -70.213      -31.412       -2.906       27.072       30.011       11.993      732.880      900.655      143.833        0.385        0.089       76.919        8.798        0.013      337.332        9.234      860.560
02/24/2014  22:26:00      -93.175      -53.557       -9.960       27.418       20.711       18.096      751.743      428.951      327.453        0.658        0.075      107.471       15.241        0.020      337.165        8.956      860.569
02/24/2014  22:27:00     -130.183      -15.688       -8.003       37.137       41.768       19.411     1379.148     1744.545      376.787        1.038        0.175      131.125       13.730        0.011      337.272        9.134      860.569
02/24/2014  22:28:00     -125.726      -48.645        1.266       40.030       32.773       26.402     1602.373     1074.077      697.057        1.077        0.169      134.809       21.334        0.025      337.195        9.004      860.571
02/24/2014  22:29:00     -119.284      -17.246       -2.915       45.079       41.397       26.588     2032.078     1713.691      706.942        0.949        0.223      120.525       26.294        0.048      337.369        9.297      860.591
02/24/2014  22:30:00     -146.082      -15.253       -8.633       39.836       40.924       24.284     1586.939     1674.807      589.714        1.275        0.193      146.876       24.840        0.029      337.376        9.309      860.591
02/24/2014  22:31:00     -124.331      -28.019      -12.401       44.923       34.305       22.663     2018.064     1176.831      513.599        1.005        0.185      127.449       18.115        0.020      337.294        9.171      860.597
02/24/2014  22:32:00     -153.284        6.752       -7.798       56.574       33.133       30.082     3200.617     1097.794      904.929        1.440        0.260      153.433       33.436        0.047      337.429        9.396      860.602
02/24/2014  22:33:00     -107.194        8.618       -1.787       37.337       33.866       23.972     1394.050     1146.881      574.675        0.734        0.156      107.540       21.748        0.041      337.617        9.713      860.602
02/24/2014  22:34:00     -116.922      -23.645       -8.767       37.499       30.111       19.021     1406.141      906.672      361.804        0.849        0.134      119.289       16.525        0.019      337.408        9.363      860.600
02/24/2014  22:35:00      -86.227      -24.412       -0.838       42.890       28.922       22.732     1839.551      836.497      516.756        0.561        0.160       89.616       21.314        0.057      337.382        9.319      860.597
02/24/2014  22:36:00      -92.562      -46.743       -9.958       24.534       30.750       18.276      601.897      945.540      334.029        0.637        0.094      103.695       12.586        0.015      337.313        9.203      860.597
02/24/2014  22:37:00      -87.728      -26.960       -6.986       32.134       28.109       18.493     1032.614      790.130      341.979        0.532        0.108       91.777       11.094        0.015      337.270        9.131      860.613
02/24/2014  22:38:00      -42.479      -22.272       -0.165       23.550       21.761       14.434      554.618      473.561      208.327        0.177        0.062       47.963       13.107        0.075      337.236        9.074      860.621
02/24/2014  22:39:00      -79.319      -53.057       -7.760       13.991       40.285       12.260      195.751     1622.841      150.309        0.557        0.098       95.428       10.444        0.012      337.152        8.934      860.630
02/24/2014  22:40:00      -89.527      -27.919      -12.873       23.791       20.020       13.943      566.004      400.792      194.404        0.506        0.058       93.779       13.339        0.020      337.142        8.915      860.655
02/24/2014  22:41:00      -82.682      -36.464       -2.098       25.544       19.840       13.819      652.500      393.632      190.955        0.470        0.062       90.365       13.148        0.021      337.104        8.853      860.666
02/24/2014  22:42:00      -42.873      -37.196        5.730       39.355       23.647       17.345     1548.788      559.176      300.841        0.283        0.120       56.759       19.840        0.122      337.182        8.982      860.670
02/24/2014  22:43:00      -58.771      -36.821        0.731       33.451       23.996       19.666     1118.987      575.804      386.771        0.345        0.104       69.353       19.224        0.077      337.198        9.011      860.676
02/24/2014  22:44:00      -73.914      -63.095       -8.472       28.295       23.864       11.921      800.602      569.505      142.100        0.551        0.076       97.181        9.499        0.010      337.309        9.196      860.683
02/24/2014  22:45:00      -43.049      -57.062       -5.851       37.129       34.170       19.144     1378.560     1167.592      366.479        0.403        0.146       71.479       15.120        0.045      337.397        9.343      860.678
02/24/2014  22:46:00      -38.537      -51.449        4.919       28.369       37.461       22.674      804.795     1403.306      514.093        0.344        0.136       64.282       24.582        0.146      337.340        9.249      860.681
02/24/2014  22:47:00      -54.885      -24.034       -0.018       29.901       18.628       13.192      894.068      347.001      174.038        0.250        0.071       59.916       12.317        0.042      337.302        9.184      860.687
02/24/2014  22:48:00      -66.785      -50.328       -5.297       38.484       20.805       17.431     1481.021      432.847      303.839        0.462        0.111       83.625       19.574        0.055      337.281        9.148      860.688
02/24/2014  22:49:00      -60.074      -42.652        1.949       44.602       27.306       21.469     1989.374      745.624      460.901        0.431        0.160       73.676       18.443        0.063      337.252        9.100      860.694
02/24/2014  22:50:00      -59.325      -64.351        2.064       35.147       35.872       17.690     1235.342     1286.772      312.921        0.525        0.142       87.525       15.659        0.032      337.255        9.107      860.699
02/24/2014  22:51:00     -109.797      -91.079       -1.968       39.745       25.667       23.678     1579.668      658.799      560.641        1.158        0.140      142.656       23.364        0.027      337.312        9.201      860.699
02/24/2014  22:52:00      -47.994      -56.270        8.119       42.779       31.753       24.766     1830.073     1008.279      613.364        0.449        0.173       73.957       25.794        0.122      337.250        9.098      860.699
02/24/2014  22:53:00      -98.537      -59.531       -1.201       52.883       31.056       26.321     2796.566      964.450      692.778        0.885        0.223      115.123       26.364        0.052      337.207        9.026      860.705
02/24/2014  22:54:00      -88.260      -49.457       -3.944       31.767       39.769       19.677     1009.162     1581.601      387.192        0.661        0.149      101.172       20.076        0.039      337.186        8.989      860.716
02/24/2014  22:55:00      -97.591       -3.369       -7.497       20.330       22.672       13.987      413.328      514.032      195.630        0.536        0.056       97.649       11.190        0.013      337.207        9.024      860.721
02/24/2014  22:56:00      -91.382       -7.392       -5.904       35.261       40.284       24.955     1243.305     1622.776      622.764        0.596        0.174       91.680       22.921        0.063      337.232        9.068      860.710
02/24/2014  22:57:00      -67.541       -6.590        2.950       44.347       30.897       25.612     1966.677      954.637      655.996        0.409        0.179       67.862       25.392        0.140      337.271        9.132      860.707
02/24/2014  22:58:00     -102.035      -28.405       -9.034       33.564       34.792       18.786     1126.573     1210.451      352.905        0.699        0.134      105.915       18.491        0.030      337.122        8.883      860.712
02/24/2014  22:59:00      -51.108      -33.428        2.563       33.387       24.731       14.344     1114.663      611.646      205.747        0.283        0.097       61.069       15.073        0.061      337.008        8.691      860.710
02/24/2014  23:00:00      -67.924      -42.118       -0.437       26.144       23.754       14.742      683.501      564.232      217.341        0.393        0.073       79.922       13.782        0.030      337.114        8.869      860.697
02/24/2014  23:01:00      -42.785      -33.640        2.191       32.233       23.667       15.890     1038.965      560.146      252.491        0.241        0.093       54.426       17.443        0.103      337.116        8.870      860.714
02/24/2014  23:02:00      -80.160      -13.165       -2.892       32.989       16.462       15.791     1088.276      271.004      249.356        0.411        0.080       81.233       18.351        0.051      337.020        8.711      860.724
02/24/2014  23:03:00      -84.252      -37.225      -14.247       20.180       21.893       11.915      407.245      479.306      141.972        0.486        0.051       92.109       12.337        0.018      336.952        8.598      860.734
02/24/2014  23:04:00      -35.584      -11.245        9.307       31.884       29.210       18.464     1016.578      853.221      340.919        0.184        0.111       37.319       17.117        0.210      337.016        8.705      860.739
02/24/2014  23:05:00      -68.400       -5.576       -4.525       26.305       28.949       19.582      691.938      838.025      383.441        0.332        0.096       68.627       16.856        0.060      337.190        8.996      860.756
02/24/2014  23:06:00      -61.885       -2.358       -7.031       32.470       32.211       18.389     1054.313     1037.575      338.170        0.316        0.122       61.930       20.882        0.114      336.948        8.591      860.772
02/24/2014  23:07:00      -73.325       21.342      -12.175       38.074       41.988       19.074     1449.640     1762.958      363.818        0.478        0.179       76.367       26.302        0.119      336.910        8.528      860.769
02/24/2014  23:08:00       -9.181      -15.419        5.319       29.207       18.861       16.213      853.073      355.724      262.854        0.091        0.074       17.945        8.119        0.205      336.910        8.528      860.776
02/24/2014  23:09:00      -10.626      -24.779        7.581       36.950       16.388       12.875     1365.331      268.580      165.757        0.129        0.090       26.961       13.863        0.264      336.925        8.553      860.785
02/24/2014  23:10:00      -37.370      -46.616      -13.758       21.067       16.137       13.465      443.821      260.416      181.303        0.232        0.044       59.746        8.895        0.022      336.898        8.509      860.803
02/24/2014  23:11:00      -60.734      -44.132      -16.160       49.885       27.733       17.161     2488.512      769.144      294.486        0.472        0.178       75.075       10.515        0.020      336.848        8.424      860.814
02/24/2014  23:12:00     -126.340      -15.612      -19.794       26.745       14.130       12.462      715.291      199.663      155.312        0.883        0.054      127.301       11.262        0.008      336.699        8.180      860.830
02/24/2014  23:13:00      -99.009      -36.410      -12.732       21.711       15.639        9.657      471.384      244.572       93.265        0.605        0.040      105.492       12.103        0.013      336.796        8.338      860.826
02/24/2014  23:14:00     -122.171       -4.290      -15.043       33.584       31.212       18.795     1127.881      974.159      353.265        0.881        0.123      122.246       13.952        0.013      336.974        8.636      860.836
02/24/2014  23:15:00     -120.291       -5.123       -8.456       54.944       33.563       24.269     3018.888     1126.469      588.976        0.965        0.237      120.400       26.364        0.048      336.926        8.557      860.842
02/24/2014  23:16:00     -168.882       -2.788      -15.446       37.316       26.257       23.012     1392.468      689.413      529.557        1.569        0.131      168.905       21.045        0.016      336.711        8.196      860.854
02/24/2014  23:17:00     -179.079       -3.607      -14.022       38.794       27.498       23.114     1505.013      756.131      534.242        1.754        0.140      179.115       21.613        0.015      336.589        7.993      860.853
02/24/2014  23:18:00     -157.346      -61.379      -10.322       26.473       28.376       22.542      700.797      805.191      508.120        1.532        0.101      168.894       16.296        0.009      336.573        7.965      860.855
02/24/2014  23:19:00     -141.856      -24.548      -24.561       24.551       33.536       20.493      602.772     1124.658      419.948        1.174        0.107      143.964       13.594        0.009      336.694        8.168      860.857
02/24/2014  23:20:00     -122.372      -41.183      -12.486       26.336       28.241       20.679      693.611      797.556      427.626        0.937        0.096      129.116       15.555        0.015      336.558        7.942      860.855
02/24/2014  23:21:00     -138.062      -14.898      -18.395       17.069       14.586       14.720      291.349      212.758      216.668        1.017        0.036      138.864        9.071        0.004      336.541        7.913      860.859
02/24/2014  23:22:00      -66.236      -13.288       -6.945       46.276       28.719       19.848     2141.471      824.806      393.928        0.399        0.168       67.556       22.460        0.111      336.848        8.425      860.847
02/24/2014  23:23:00      -76.882       33.186      -15.017       46.113       45.721       27.052     2126.385     2090.448      731.831        0.609        0.247       83.739       19.827        0.056      337.278        9.143      860.846
02/24/2014  23:24:00      -84.378       59.623      -20.889       31.969       54.528       18.278     1022.035     2973.278      334.071        0.772        0.216      103.318       21.163        0.042      337.566        9.626      860.850
02/24/2014  23:25:00     -157.375      -47.900      -19.840       36.906       32.237       16.230     1362.024     1039.217      263.407        1.506        0.133      164.503       13.413        0.007      336.488        7.825      860.862
02/24/2014  23:26:00     -103.714      -27.899      -13.520       28.075       20.863       14.437      788.202      435.263      208.422        0.657        0.072      107.401        6.766        0.004      336.546        7.922      860.862
02/24/2014  23:27:00      -60.192      -13.646       -6.208       27.805       21.190       13.530      773.123      449.033      183.069        0.263        0.070       61.720       10.503        0.029      336.711        8.198      860.859
02/24/2014  23:28:00      -88.576      -38.057      -11.588       26.198       25.850       14.826      686.337      668.212      219.799        0.550        0.079       96.405       10.599        0.012      336.720        8.213      860.857
02/24/2014  23:29:00      -70.471      -41.126       -0.570       35.221       23.664       19.824     1240.496      559.977      393.010        0.443        0.110       81.593       20.657        0.064      336.655        8.103      860.873
02/24/2014  23:30:00      -72.634      -47.112       -9.597       28.222       14.037       14.119      796.464      197.024      199.346        0.439        0.060       86.575       13.871        0.026      336.661        8.114      860.878
02/24/2014  23:31:00     -118.627      -42.463       -8.709       26.665       23.847       14.009      711.011      568.656      196.263        0.871        0.074      125.998       12.892        0.010      336.614        8.035      860.888
02/24/2014  23:32:00     -107.854      -23.538      -11.649       34.221       22.306       18.326     1171.079      497.540      335.852        0.716        0.100      110.392       20.843        0.036      336.608        8.024      860.895
02/24/2014  23:33:00      -86.090      -42.420      -10.718       22.350       14.633       10.430      499.541      214.110      108.792        0.507        0.041       95.973       11.150        0.013      336.607        8.023      860.902
02/24/2014  23:34:00     -107.315      -24.262      -11.670       41.029       32.770       22.376     1683.399     1073.880      500.677        0.775        0.163      110.023       24.842        0.051      336.641        8.079      860.901
02/24/2014  23:35:00     -105.217      -12.373        1.383       42.984       37.317       29.130     1847.637     1392.556      848.580        0.766        0.204      105.942       26.309        0.062      336.788        8.324      860.891
02/24/2014  23:36:00     -102.862      -39.690      -10.582       21.206       27.234       14.171      449.681      741.678      200.825        0.683        0.070      110.253       11.246        0.010      336.501        7.845      860.895
02/24/2014  23:37:00     -102.647      -57.314      -11.649       25.851       23.178       16.079      668.290      537.241      258.550        0.771        0.073      117.564       10.548        0.008      336.547        7.924      860.896
02/24/2014  23:38:00      -92.948      -80.727      -10.096       32.067       25.231       21.679     1028.310      636.620      469.968        0.870        0.107      123.111       16.422        0.018      336.500        7.845      860.892
02/24/2014  23:39:00      -71.750      -56.963        3.567       49.632       31.178       24.233     2463.344      972.058      587.243        0.621        0.201       91.613       26.076        0.081      336.530        7.895      860.891
02/24/2014  23:40:00     -129.662      -56.541        0.129       58.507       45.755       22.835     3423.024     2093.488      521.454        1.302        0.302      141.454       27.114        0.037      336.461        7.778      860.893
02/24/2014  23:41:00     -121.613      -39.306        2.472       51.806       35.118       23.509     2683.880     1233.286      552.656        1.040        0.223      127.807       20.323        0.025      336.431        7.727      860.898
02/24/2014  23:42:00     -114.211      -53.503       -9.760       29.994       27.701       17.769      899.629      767.366      315.752        0.899        0.099      126.122        9.752        0.006      336.508        7.857      860.909
02/24/2014  23:43:00     -143.612      -15.824       -8.064       47.856       35.918       19.973     2290.226     1290.122      398.907        1.246        0.199      144.481       18.847        0.017      336.502        7.847      860.915
02/24/2014  23:44:00     -153.906      -20.177       -8.166       47.571       41.359       28.879     2262.997     1710.597      833.987        1.448        0.240      155.223       28.914        0.035      336.454        7.765      860.919
02/24/2014  23:45:00     -126.170       -8.176       -3.783       55.499       52.978       27.098     3080.120     2806.667      734.289        1.131        0.331      126.434       26.855        0.045      336.407        7.687      860.920
02/24/2014  23:46:00     -116.483      -48.334       -8.771       57.730       35.623       26.406     3332.805     1269.021      697.290        1.064        0.265      126.113       29.095        0.053      336.365        7.619      860.929
02/24/2014  23:47:00      -73.712      -30.062      -11.478       34.748       25.000       19.755     1207.431      625.001      390.263        0.435        0.111       79.607       18.032        0.051      336.313        7.530      860.933
02/24/2014  23:48:00      -85.485      -43.484      -10.672       31.706       23.315       14.956     1005.240      543.586      223.685        0.554        0.089       95.909       15.429        0.026      336.315        7.536      860.939
02/24/2014  23:49:00      -93.624      -56.795       -8.435       59.504       45.116       21.815     3540.714     2035.430      475.916        0.906        0.303      109.504       21.216        0.038      336.245        7.418      860.953
02/24/2014  23:50:00      -94.734      -63.399       -9.124       59.710       34.565       27.490     3565.244     1194.761      755.683        0.930        0.276      113.991       21.316        0.035      336.242        7.412      860.962
02/24/2014  23:51:00      -84.760      -37.775        4.489       49.830       44.248       27.834     2483.006     1957.928      774.725        0.692        0.261       92.797       22.701        0.060      336.187        7.320      860.984
02/24/2014  23:52:00      -30.920      -31.227        5.459       49.185       32.863       20.119     2419.151     1079.963      404.788        0.293        0.195       43.945       23.241        0.280      336.275        7.467      860.985
02/24/2014  23:53:00      -56.070      -37.134       -3.442       37.899       16.632       13.844     1436.347      276.626      191.644        0.322        0.095       67.252       16.086        0.057      336.219        7.375      860.990
02/24/2014  23:54:00      -68.742      -41.638      -10.156       23.752       19.662       15.101      564.157      386.587      228.049        0.387        0.059       80.369       12.862        0.026      336.344        7.584      860.990
02/24/2014  23:55:00      -52.893      -34.256       -4.190       24.009       18.390       16.026      576.415      338.180      256.830        0.258        0.059       63.017       16.044        0.065      336.449        7.758      861.002
02/24/2014  23:56:00      -95.328      -51.843        1.077       25.522       24.255       21.845      651.356      588.298      477.208        0.675        0.086      108.513       14.526        0.018      336.384        7.649      861.021
02/24/2014  23:57:00     -108.787      -50.883      -12.075       32.536       31.685       14.682     1058.588     1003.968      215.570        0.842        0.114      120.099       11.077        0.009      336.319        7.540      861.020
02/24/2014  23:58:00      -49.432        8.659       -4.735       27.633       25.470       16.088      763.563      648.741      258.835        0.211        0.084       50.185       11.728        0.055      336.369        7.623      861.008
02/24/2014  23:59:00      -39.933        5.163       -9.694       13.709       30.906        9.295      187.937      955.186       86.389        0.147        0.061       40.266       12.270        0.093      336.510        7.860      860.989
